<?xml version="1.0" encoding="UTF-8" standalone="no" ?>
<gpx xmlns="http://www.topografix.com/GPX/1/1" xmlns:xsi="http://www.w3.org/2001/XMLSchema-instance" xsi:schemaLocation="http://www.topografix.com/GPX/1/1 http://www.topografix.com/GPX/1/1/gpx.xsd" version="1.1" creator="VisuGPX - https://www.visugpx.com">
  <metadata>
    <name>Dissey</name>
    <desc><![CDATA[Circuit en Bresse jurassienne]]></desc>
  </metadata>
  <trk>
    <name><![CDATA[dissey2]]></name>
    <trkseg>
      <trkpt lat="47.07545" lon="5.49058">
        <ele>196.726929</ele>
        <time>2012-03-23T13:42:22Z</time>
      </trkpt>
      <trkpt lat="47.07547" lon="5.49059">
        <ele>187.11377</ele>
        <time>2012-03-23T13:42:23Z</time>
      </trkpt>
      <trkpt lat="47.07547" lon="5.49059">
        <ele>195.765625</ele>
        <time>2012-03-23T13:42:24Z</time>
      </trkpt>
      <trkpt lat="47.07543" lon="5.4906">
        <ele>195.284912</ele>
        <time>2012-03-23T13:43:33Z</time>
      </trkpt>
      <trkpt lat="47.07544" lon="5.49061">
        <ele>195.284912</ele>
        <time>2012-03-23T13:44:30Z</time>
      </trkpt>
      <trkpt lat="47.07542" lon="5.49064">
        <ele>196.246338</ele>
        <time>2012-03-23T13:44:52Z</time>
      </trkpt>
      <trkpt lat="47.07544" lon="5.49066">
        <ele>196.246338</ele>
        <time>2012-03-23T13:44:55Z</time>
      </trkpt>
      <trkpt lat="47.07568" lon="5.49093">
        <ele>197.20752</ele>
        <time>2012-03-23T13:45:12Z</time>
      </trkpt>
      <trkpt lat="47.07598" lon="5.49081">
        <ele>199.61084</ele>
        <time>2012-03-23T13:45:26Z</time>
      </trkpt>
      <trkpt lat="47.07605" lon="5.49081">
        <ele>198.649536</ele>
        <time>2012-03-23T13:45:29Z</time>
      </trkpt>
      <trkpt lat="47.07632" lon="5.49044">
        <ele>198.649536</ele>
        <time>2012-03-23T13:45:43Z</time>
      </trkpt>
      <trkpt lat="47.07666" lon="5.48999">
        <ele>198.649536</ele>
        <time>2012-03-23T13:45:55Z</time>
      </trkpt>
      <trkpt lat="47.07676" lon="5.48987">
        <ele>198.649536</ele>
        <time>2012-03-23T13:45:58Z</time>
      </trkpt>
      <trkpt lat="47.07682" lon="5.48979">
        <ele>198.168945</ele>
        <time>2012-03-23T13:46:00Z</time>
      </trkpt>
      <trkpt lat="47.07692" lon="5.48948">
        <ele>198.168945</ele>
        <time>2012-03-23T13:46:06Z</time>
      </trkpt>
      <trkpt lat="47.07712" lon="5.48901">
        <ele>198.649536</ele>
        <time>2012-03-23T13:46:18Z</time>
      </trkpt>
      <trkpt lat="47.07716" lon="5.489">
        <ele>198.168945</ele>
        <time>2012-03-23T13:46:19Z</time>
      </trkpt>
      <trkpt lat="47.07745" lon="5.4893">
        <ele>197.20752</ele>
        <time>2012-03-23T13:46:29Z</time>
      </trkpt>
      <trkpt lat="47.07739" lon="5.48946">
        <ele>197.688232</ele>
        <time>2012-03-23T13:46:32Z</time>
      </trkpt>
      <trkpt lat="47.07702" lon="5.48985">
        <ele>198.168945</ele>
        <time>2012-03-23T13:46:46Z</time>
      </trkpt>
      <trkpt lat="47.0764" lon="5.4905">
        <ele>199.130127</ele>
        <time>2012-03-23T13:47:02Z</time>
      </trkpt>
      <trkpt lat="47.07554" lon="5.49197">
        <ele>200.572266</ele>
        <time>2012-03-23T13:47:29Z</time>
      </trkpt>
      <trkpt lat="47.07473" lon="5.49359">
        <ele>203.93689</ele>
        <time>2012-03-23T13:47:58Z</time>
      </trkpt>
      <trkpt lat="47.07462" lon="5.49382">
        <ele>204.898071</ele>
        <time>2012-03-23T13:48:03Z</time>
      </trkpt>
      <trkpt lat="47.07421" lon="5.49413">
        <ele>206.820679</ele>
        <time>2012-03-23T13:48:16Z</time>
      </trkpt>
      <trkpt lat="47.0738" lon="5.49368">
        <ele>209.224121</ele>
        <time>2012-03-23T13:48:30Z</time>
      </trkpt>
      <trkpt lat="47.07306" lon="5.49273">
        <ele>212.108032</ele>
        <time>2012-03-23T13:48:53Z</time>
      </trkpt>
      <trkpt lat="47.07276" lon="5.49235">
        <ele>211.627441</ele>
        <time>2012-03-23T13:49:01Z</time>
      </trkpt>
      <trkpt lat="47.0724" lon="5.4918">
        <ele>210.185425</ele>
        <time>2012-03-23T13:49:11Z</time>
      </trkpt>
      <trkpt lat="47.0722" lon="5.49123">
        <ele>209.704834</ele>
        <time>2012-03-23T13:49:20Z</time>
      </trkpt>
      <trkpt lat="47.07217" lon="5.49115">
        <ele>209.704834</ele>
        <time>2012-03-23T13:49:32Z</time>
      </trkpt>
      <trkpt lat="47.07208" lon="5.49087">
        <ele>210.185425</ele>
        <time>2012-03-23T13:49:44Z</time>
      </trkpt>
      <trkpt lat="47.07179" lon="5.49015">
        <ele>209.224121</ele>
        <time>2012-03-23T13:49:55Z</time>
      </trkpt>
      <trkpt lat="47.0712" lon="5.48911">
        <ele>208.743408</ele>
        <time>2012-03-23T13:50:10Z</time>
      </trkpt>
      <trkpt lat="47.07048" lon="5.48794">
        <ele>209.704834</ele>
        <time>2012-03-23T13:50:29Z</time>
      </trkpt>
      <trkpt lat="47.0701" lon="5.48758">
        <ele>208.743408</ele>
        <time>2012-03-23T13:50:37Z</time>
      </trkpt>
      <trkpt lat="47.06996" lon="5.48742">
        <ele>208.262817</ele>
        <time>2012-03-23T13:50:40Z</time>
      </trkpt>
      <trkpt lat="47.06981" lon="5.48716">
        <ele>207.782104</ele>
        <time>2012-03-23T13:50:44Z</time>
      </trkpt>
      <trkpt lat="47.0692" lon="5.487">
        <ele>208.743408</ele>
        <time>2012-03-23T13:50:56Z</time>
      </trkpt>
      <trkpt lat="47.06894" lon="5.48712">
        <ele>208.743408</ele>
        <time>2012-03-23T13:51:01Z</time>
      </trkpt>
      <trkpt lat="47.06778" lon="5.48821">
        <ele>210.666016</ele>
        <time>2012-03-23T13:51:25Z</time>
      </trkpt>
      <trkpt lat="47.06749" lon="5.48848">
        <ele>210.666016</ele>
        <time>2012-03-23T13:51:31Z</time>
      </trkpt>
      <trkpt lat="47.06713" lon="5.48843">
        <ele>210.666016</ele>
        <time>2012-03-23T13:51:38Z</time>
      </trkpt>
      <trkpt lat="47.06671" lon="5.48782">
        <ele>207.782104</ele>
        <time>2012-03-23T13:51:47Z</time>
      </trkpt>
      <trkpt lat="47.06649" lon="5.48743">
        <ele>206.820679</ele>
        <time>2012-03-23T13:51:51Z</time>
      </trkpt>
      <trkpt lat="47.06638" lon="5.4867">
        <ele>205.859497</ele>
        <time>2012-03-23T13:51:57Z</time>
      </trkpt>
      <trkpt lat="47.06662" lon="5.48551">
        <ele>207.782104</ele>
        <time>2012-03-23T13:52:09Z</time>
      </trkpt>
      <trkpt lat="47.06668" lon="5.48473">
        <ele>207.301392</ele>
        <time>2012-03-23T13:52:21Z</time>
      </trkpt>
      <trkpt lat="47.06653" lon="5.4845">
        <ele>206.820679</ele>
        <time>2012-03-23T13:52:27Z</time>
      </trkpt>
      <trkpt lat="47.06603" lon="5.48439">
        <ele>206.340088</ele>
        <time>2012-03-23T13:52:37Z</time>
      </trkpt>
      <trkpt lat="47.06572" lon="5.48399">
        <ele>205.859497</ele>
        <time>2012-03-23T13:52:44Z</time>
      </trkpt>
      <trkpt lat="47.06557" lon="5.48345">
        <ele>205.378784</ele>
        <time>2012-03-23T13:52:50Z</time>
      </trkpt>
      <trkpt lat="47.06525" lon="5.48293">
        <ele>205.378784</ele>
        <time>2012-03-23T13:52:58Z</time>
      </trkpt>
      <trkpt lat="47.06499" lon="5.48277">
        <ele>205.378784</ele>
        <time>2012-03-23T13:53:03Z</time>
      </trkpt>
      <trkpt lat="47.06421" lon="5.48257">
        <ele>204.41748</ele>
        <time>2012-03-23T13:53:16Z</time>
      </trkpt>
      <trkpt lat="47.0634" lon="5.48221">
        <ele>201.533569</ele>
        <time>2012-03-23T13:53:27Z</time>
      </trkpt>
      <trkpt lat="47.06331" lon="5.48218">
        <ele>200.572266</ele>
        <time>2012-03-23T13:53:28Z</time>
      </trkpt>
      <trkpt lat="47.06256" lon="5.48209">
        <ele>199.130127</ele>
        <time>2012-03-23T13:53:36Z</time>
      </trkpt>
      <trkpt lat="47.06224" lon="5.48216">
        <ele>198.649536</ele>
        <time>2012-03-23T13:53:40Z</time>
      </trkpt>
      <trkpt lat="47.06116" lon="5.48275">
        <ele>197.688232</ele>
        <time>2012-03-23T13:53:56Z</time>
      </trkpt>
      <trkpt lat="47.06026" lon="5.48301">
        <ele>196.246338</ele>
        <time>2012-03-23T13:54:10Z</time>
      </trkpt>
      <trkpt lat="47.05902" lon="5.4833">
        <ele>197.20752</ele>
        <time>2012-03-23T13:54:30Z</time>
      </trkpt>
      <trkpt lat="47.0577" lon="5.48402">
        <ele>196.726929</ele>
        <time>2012-03-23T13:54:53Z</time>
      </trkpt>
      <trkpt lat="47.05732" lon="5.48376">
        <ele>196.726929</ele>
        <time>2012-03-23T13:55:00Z</time>
      </trkpt>
      <trkpt lat="47.05693" lon="5.48308">
        <ele>196.246338</ele>
        <time>2012-03-23T13:55:09Z</time>
      </trkpt>
      <trkpt lat="47.05608" lon="5.48275">
        <ele>195.765625</ele>
        <time>2012-03-23T13:55:23Z</time>
      </trkpt>
      <trkpt lat="47.05524" lon="5.483">
        <ele>196.726929</ele>
        <time>2012-03-23T13:55:37Z</time>
      </trkpt>
      <trkpt lat="47.05463" lon="5.48327">
        <ele>196.726929</ele>
        <time>2012-03-23T13:55:47Z</time>
      </trkpt>
      <trkpt lat="47.05354" lon="5.48325">
        <ele>195.765625</ele>
        <time>2012-03-23T13:56:04Z</time>
      </trkpt>
      <trkpt lat="47.05239" lon="5.48255">
        <ele>195.765625</ele>
        <time>2012-03-23T13:56:23Z</time>
      </trkpt>
      <trkpt lat="47.05145" lon="5.48134">
        <ele>196.246338</ele>
        <time>2012-03-23T13:56:42Z</time>
      </trkpt>
      <trkpt lat="47.05095" lon="5.48019">
        <ele>196.726929</ele>
        <time>2012-03-23T13:56:57Z</time>
      </trkpt>
      <trkpt lat="47.05085" lon="5.47986">
        <ele>196.246338</ele>
        <time>2012-03-23T13:57:01Z</time>
      </trkpt>
      <trkpt lat="47.05064" lon="5.47955">
        <ele>195.765625</ele>
        <time>2012-03-23T13:57:06Z</time>
      </trkpt>
      <trkpt lat="47.04973" lon="5.47886">
        <ele>195.765625</ele>
        <time>2012-03-23T13:57:23Z</time>
      </trkpt>
      <trkpt lat="47.04914" lon="5.47841">
        <ele>195.765625</ele>
        <time>2012-03-23T13:57:34Z</time>
      </trkpt>
      <trkpt lat="47.04885" lon="5.47828">
        <ele>195.765625</ele>
        <time>2012-03-23T13:57:39Z</time>
      </trkpt>
      <trkpt lat="47.04781" lon="5.478">
        <ele>196.726929</ele>
        <time>2012-03-23T13:57:58Z</time>
      </trkpt>
      <trkpt lat="47.04674" lon="5.47744">
        <ele>195.765625</ele>
        <time>2012-03-23T13:58:17Z</time>
      </trkpt>
      <trkpt lat="47.04592" lon="5.47661">
        <ele>196.246338</ele>
        <time>2012-03-23T13:58:34Z</time>
      </trkpt>
      <trkpt lat="47.04446" lon="5.47485">
        <ele>195.765625</ele>
        <time>2012-03-23T13:59:00Z</time>
      </trkpt>
      <trkpt lat="47.0434" lon="5.47403">
        <ele>195.765625</ele>
        <time>2012-03-23T13:59:18Z</time>
      </trkpt>
      <trkpt lat="47.04288" lon="5.47365">
        <ele>195.765625</ele>
        <time>2012-03-23T13:59:27Z</time>
      </trkpt>
      <trkpt lat="47.0428" lon="5.47316">
        <ele>196.246338</ele>
        <time>2012-03-23T13:59:34Z</time>
      </trkpt>
      <trkpt lat="47.04301" lon="5.47199">
        <ele>195.765625</ele>
        <time>2012-03-23T13:59:49Z</time>
      </trkpt>
      <trkpt lat="47.04328" lon="5.47149">
        <ele>196.246338</ele>
        <time>2012-03-23T13:59:57Z</time>
      </trkpt>
      <trkpt lat="47.04339" lon="5.47146">
        <ele>196.726929</ele>
        <time>2012-03-23T13:59:59Z</time>
      </trkpt>
      <trkpt lat="47.0451" lon="5.47102">
        <ele>196.246338</ele>
        <time>2012-03-23T14:00:27Z</time>
      </trkpt>
      <trkpt lat="47.04645" lon="5.47073">
        <ele>196.726929</ele>
        <time>2012-03-23T14:00:49Z</time>
      </trkpt>
      <trkpt lat="47.04754" lon="5.47031">
        <ele>195.765625</ele>
        <time>2012-03-23T14:01:06Z</time>
      </trkpt>
      <trkpt lat="47.04867" lon="5.46993">
        <ele>196.246338</ele>
        <time>2012-03-23T14:01:25Z</time>
      </trkpt>
      <trkpt lat="47.04983" lon="5.46933">
        <ele>195.765625</ele>
        <time>2012-03-23T14:01:46Z</time>
      </trkpt>
      <trkpt lat="47.0508" lon="5.46816">
        <ele>195.765625</ele>
        <time>2012-03-23T14:02:07Z</time>
      </trkpt>
      <trkpt lat="47.05192" lon="5.46683">
        <ele>196.246338</ele>
        <time>2012-03-23T14:02:31Z</time>
      </trkpt>
      <trkpt lat="47.05274" lon="5.46594">
        <ele>196.726929</ele>
        <time>2012-03-23T14:02:47Z</time>
      </trkpt>
      <trkpt lat="47.05357" lon="5.46524">
        <ele>197.688232</ele>
        <time>2012-03-23T14:03:03Z</time>
      </trkpt>
      <trkpt lat="47.0544" lon="5.46445">
        <ele>200.091675</ele>
        <time>2012-03-23T14:03:23Z</time>
      </trkpt>
      <trkpt lat="47.05534" lon="5.46348">
        <ele>200.091675</ele>
        <time>2012-03-23T14:03:45Z</time>
      </trkpt>
      <trkpt lat="47.05546" lon="5.46335">
        <ele>200.091675</ele>
        <time>2012-03-23T14:03:48Z</time>
      </trkpt>
      <trkpt lat="47.05626" lon="5.46319">
        <ele>197.688232</ele>
        <time>2012-03-23T14:04:01Z</time>
      </trkpt>
      <trkpt lat="47.05768" lon="5.46342">
        <ele>196.246338</ele>
        <time>2012-03-23T14:04:24Z</time>
      </trkpt>
      <trkpt lat="47.05841" lon="5.46352">
        <ele>196.246338</ele>
        <time>2012-03-23T14:04:36Z</time>
      </trkpt>
      <trkpt lat="47.0591" lon="5.46304">
        <ele>196.726929</ele>
        <time>2012-03-23T14:04:49Z</time>
      </trkpt>
      <trkpt lat="47.06011" lon="5.46227">
        <ele>197.688232</ele>
        <time>2012-03-23T14:05:08Z</time>
      </trkpt>
      <trkpt lat="47.06055" lon="5.46188">
        <ele>198.168945</ele>
        <time>2012-03-23T14:05:16Z</time>
      </trkpt>
      <trkpt lat="47.06093" lon="5.46122">
        <ele>201.533569</ele>
        <time>2012-03-23T14:05:28Z</time>
      </trkpt>
      <trkpt lat="47.06102" lon="5.46098">
        <ele>202.014282</ele>
        <time>2012-03-23T14:05:36Z</time>
      </trkpt>
      <trkpt lat="47.06096" lon="5.46087">
        <ele>201.533569</ele>
        <time>2012-03-23T14:05:40Z</time>
      </trkpt>
      <trkpt lat="47.06071" lon="5.46061">
        <ele>198.649536</ele>
        <time>2012-03-23T14:05:45Z</time>
      </trkpt>
      <trkpt lat="47.06035" lon="5.45962">
        <ele>198.649536</ele>
        <time>2012-03-23T14:05:57Z</time>
      </trkpt>
      <trkpt lat="47.05969" lon="5.4575">
        <ele>197.688232</ele>
        <time>2012-03-23T14:06:22Z</time>
      </trkpt>
      <trkpt lat="47.05906" lon="5.45547">
        <ele>198.649536</ele>
        <time>2012-03-23T14:06:45Z</time>
      </trkpt>
      <trkpt lat="47.05836" lon="5.45324">
        <ele>198.649536</ele>
        <time>2012-03-23T14:07:09Z</time>
      </trkpt>
      <trkpt lat="47.05768" lon="5.45115">
        <ele>199.61084</ele>
        <time>2012-03-23T14:07:32Z</time>
      </trkpt>
      <trkpt lat="47.05695" lon="5.44872">
        <ele>198.649536</ele>
        <time>2012-03-23T14:07:58Z</time>
      </trkpt>
      <trkpt lat="47.05623" lon="5.44649">
        <ele>198.168945</ele>
        <time>2012-03-23T14:08:22Z</time>
      </trkpt>
      <trkpt lat="47.05577" lon="5.445">
        <ele>197.688232</ele>
        <time>2012-03-23T14:08:38Z</time>
      </trkpt>
      <trkpt lat="47.05553" lon="5.44415">
        <ele>197.688232</ele>
        <time>2012-03-23T14:08:47Z</time>
      </trkpt>
      <trkpt lat="47.05566" lon="5.44331">
        <ele>198.168945</ele>
        <time>2012-03-23T14:08:56Z</time>
      </trkpt>
      <trkpt lat="47.05571" lon="5.44324">
        <ele>198.649536</ele>
        <time>2012-03-23T14:08:57Z</time>
      </trkpt>
      <trkpt lat="47.05605" lon="5.44276">
        <ele>198.168945</ele>
        <time>2012-03-23T14:09:04Z</time>
      </trkpt>
      <trkpt lat="47.05625" lon="5.44256">
        <ele>198.168945</ele>
        <time>2012-03-23T14:09:08Z</time>
      </trkpt>
      <trkpt lat="47.05637" lon="5.44228">
        <ele>197.20752</ele>
        <time>2012-03-23T14:09:12Z</time>
      </trkpt>
      <trkpt lat="47.05656" lon="5.44202">
        <ele>196.246338</ele>
        <time>2012-03-23T14:09:16Z</time>
      </trkpt>
      <trkpt lat="47.05676" lon="5.44194">
        <ele>197.688232</ele>
        <time>2012-03-23T14:09:20Z</time>
      </trkpt>
      <trkpt lat="47.0568" lon="5.4419">
        <ele>197.20752</ele>
        <time>2012-03-23T14:09:21Z</time>
      </trkpt>
      <trkpt lat="47.05788" lon="5.44052">
        <ele>196.726929</ele>
        <time>2012-03-23T14:09:44Z</time>
      </trkpt>
      <trkpt lat="47.059" lon="5.43896">
        <ele>196.246338</ele>
        <time>2012-03-23T14:10:08Z</time>
      </trkpt>
      <trkpt lat="47.0597" lon="5.43782">
        <ele>197.20752</ele>
        <time>2012-03-23T14:10:24Z</time>
      </trkpt>
      <trkpt lat="47.05977" lon="5.43748">
        <ele>197.688232</ele>
        <time>2012-03-23T14:10:28Z</time>
      </trkpt>
      <trkpt lat="47.05979" lon="5.43721">
        <ele>196.726929</ele>
        <time>2012-03-23T14:10:31Z</time>
      </trkpt>
      <trkpt lat="47.05985" lon="5.43702">
        <ele>196.726929</ele>
        <time>2012-03-23T14:10:33Z</time>
      </trkpt>
      <trkpt lat="47.05972" lon="5.43576">
        <ele>196.246338</ele>
        <time>2012-03-23T14:10:46Z</time>
      </trkpt>
      <trkpt lat="47.05974" lon="5.43257">
        <ele>195.765625</ele>
        <time>2012-03-23T14:11:17Z</time>
      </trkpt>
      <trkpt lat="47.05973" lon="5.42997">
        <ele>195.284912</ele>
        <time>2012-03-23T14:11:43Z</time>
      </trkpt>
      <trkpt lat="47.05966" lon="5.4296">
        <ele>195.765625</ele>
        <time>2012-03-23T14:11:47Z</time>
      </trkpt>
      <trkpt lat="47.0597" lon="5.4292">
        <ele>195.765625</ele>
        <time>2012-03-23T14:11:52Z</time>
      </trkpt>
      <trkpt lat="47.05971" lon="5.4278">
        <ele>195.765625</ele>
        <time>2012-03-23T14:12:07Z</time>
      </trkpt>
      <trkpt lat="47.05971" lon="5.4269">
        <ele>197.20752</ele>
        <time>2012-03-23T14:12:17Z</time>
      </trkpt>
      <trkpt lat="47.05972" lon="5.42674">
        <ele>198.168945</ele>
        <time>2012-03-23T14:12:22Z</time>
      </trkpt>
      <trkpt lat="47.05963" lon="5.42672">
        <ele>199.130127</ele>
        <time>2012-03-23T14:12:26Z</time>
      </trkpt>
      <trkpt lat="47.0595" lon="5.42673">
        <ele>198.649536</ele>
        <time>2012-03-23T14:12:31Z</time>
      </trkpt>
      <trkpt lat="47.05945" lon="5.4262">
        <ele>196.246338</ele>
        <time>2012-03-23T14:12:38Z</time>
      </trkpt>
      <trkpt lat="47.05947" lon="5.42441">
        <ele>196.726929</ele>
        <time>2012-03-23T14:12:57Z</time>
      </trkpt>
      <trkpt lat="47.0595" lon="5.42349">
        <ele>195.765625</ele>
        <time>2012-03-23T14:13:07Z</time>
      </trkpt>
      <trkpt lat="47.05951" lon="5.42125">
        <ele>195.765625</ele>
        <time>2012-03-23T14:13:30Z</time>
      </trkpt>
      <trkpt lat="47.05952" lon="5.41956">
        <ele>195.284912</ele>
        <time>2012-03-23T14:13:47Z</time>
      </trkpt>
      <trkpt lat="47.05952" lon="5.41917">
        <ele>197.20752</ele>
        <time>2012-03-23T14:13:51Z</time>
      </trkpt>
      <trkpt lat="47.05952" lon="5.41678">
        <ele>195.765625</ele>
        <time>2012-03-23T14:14:16Z</time>
      </trkpt>
      <trkpt lat="47.0595" lon="5.41464">
        <ele>195.765625</ele>
        <time>2012-03-23T14:14:38Z</time>
      </trkpt>
      <trkpt lat="47.0594" lon="5.41333">
        <ele>195.284912</ele>
        <time>2012-03-23T14:14:52Z</time>
      </trkpt>
      <trkpt lat="47.05945" lon="5.41273">
        <ele>196.246338</ele>
        <time>2012-03-23T14:15:03Z</time>
      </trkpt>
      <trkpt lat="47.05945" lon="5.41272">
        <ele>196.726929</ele>
        <time>2012-03-23T14:15:04Z</time>
      </trkpt>
      <trkpt lat="47.05935" lon="5.41265">
        <ele>197.20752</ele>
        <time>2012-03-23T14:15:09Z</time>
      </trkpt>
      <trkpt lat="47.05916" lon="5.41264">
        <ele>196.246338</ele>
        <time>2012-03-23T14:15:13Z</time>
      </trkpt>
      <trkpt lat="47.05862" lon="5.41262">
        <ele>194.32373</ele>
        <time>2012-03-23T14:15:21Z</time>
      </trkpt>
      <trkpt lat="47.05818" lon="5.41293">
        <ele>193.843018</ele>
        <time>2012-03-23T14:15:28Z</time>
      </trkpt>
      <trkpt lat="47.05776" lon="5.41361">
        <ele>193.843018</ele>
        <time>2012-03-23T14:15:37Z</time>
      </trkpt>
      <trkpt lat="47.0574" lon="5.41384">
        <ele>193.362305</ele>
        <time>2012-03-23T14:15:43Z</time>
      </trkpt>
      <trkpt lat="47.05604" lon="5.41385">
        <ele>193.362305</ele>
        <time>2012-03-23T14:16:03Z</time>
      </trkpt>
      <trkpt lat="47.0545" lon="5.41387">
        <ele>193.362305</ele>
        <time>2012-03-23T14:16:26Z</time>
      </trkpt>
      <trkpt lat="47.05343" lon="5.41387">
        <ele>192.401123</ele>
        <time>2012-03-23T14:16:42Z</time>
      </trkpt>
      <trkpt lat="47.05281" lon="5.41387">
        <ele>192.881714</ele>
        <time>2012-03-23T14:16:51Z</time>
      </trkpt>
      <trkpt lat="47.05275" lon="5.41387">
        <ele>193.362305</ele>
        <time>2012-03-23T14:16:52Z</time>
      </trkpt>
      <trkpt lat="47.05254" lon="5.41376">
        <ele>192.881714</ele>
        <time>2012-03-23T14:16:56Z</time>
      </trkpt>
      <trkpt lat="47.05242" lon="5.41367">
        <ele>193.362305</ele>
        <time>2012-03-23T14:16:58Z</time>
      </trkpt>
      <trkpt lat="47.05213" lon="5.41382">
        <ele>192.881714</ele>
        <time>2012-03-23T14:17:03Z</time>
      </trkpt>
      <trkpt lat="47.05121" lon="5.41386">
        <ele>193.362305</ele>
        <time>2012-03-23T14:17:17Z</time>
      </trkpt>
      <trkpt lat="47.04932" lon="5.41385">
        <ele>192.881714</ele>
        <time>2012-03-23T14:17:45Z</time>
      </trkpt>
      <trkpt lat="47.04881" lon="5.41386">
        <ele>193.362305</ele>
        <time>2012-03-23T14:17:53Z</time>
      </trkpt>
      <trkpt lat="47.04859" lon="5.41375">
        <ele>194.32373</ele>
        <time>2012-03-23T14:17:57Z</time>
      </trkpt>
      <trkpt lat="47.04831" lon="5.41381">
        <ele>193.362305</ele>
        <time>2012-03-23T14:18:02Z</time>
      </trkpt>
      <trkpt lat="47.04786" lon="5.4138">
        <ele>193.362305</ele>
        <time>2012-03-23T14:18:09Z</time>
      </trkpt>
      <trkpt lat="47.04769" lon="5.4137">
        <ele>192.881714</ele>
        <time>2012-03-23T14:18:12Z</time>
      </trkpt>
      <trkpt lat="47.0474" lon="5.41372">
        <ele>193.362305</ele>
        <time>2012-03-23T14:18:17Z</time>
      </trkpt>
      <trkpt lat="47.04638" lon="5.4134">
        <ele>193.843018</ele>
        <time>2012-03-23T14:18:33Z</time>
      </trkpt>
      <trkpt lat="47.04479" lon="5.41289">
        <ele>193.362305</ele>
        <time>2012-03-23T14:18:57Z</time>
      </trkpt>
      <trkpt lat="47.04371" lon="5.41274">
        <ele>192.881714</ele>
        <time>2012-03-23T14:19:14Z</time>
      </trkpt>
      <trkpt lat="47.04359" lon="5.41271">
        <ele>192.881714</ele>
        <time>2012-03-23T14:19:16Z</time>
      </trkpt>
      <trkpt lat="47.04338" lon="5.41254">
        <ele>193.843018</ele>
        <time>2012-03-23T14:19:20Z</time>
      </trkpt>
      <trkpt lat="47.04317" lon="5.41259">
        <ele>193.362305</ele>
        <time>2012-03-23T14:19:24Z</time>
      </trkpt>
      <trkpt lat="47.04305" lon="5.41268">
        <ele>193.362305</ele>
        <time>2012-03-23T14:19:26Z</time>
      </trkpt>
      <trkpt lat="47.04234" lon="5.41268">
        <ele>193.362305</ele>
        <time>2012-03-23T14:19:37Z</time>
      </trkpt>
      <trkpt lat="47.04077" lon="5.41264">
        <ele>193.362305</ele>
        <time>2012-03-23T14:20:00Z</time>
      </trkpt>
      <trkpt lat="47.03954" lon="5.4126">
        <ele>193.362305</ele>
        <time>2012-03-23T14:20:18Z</time>
      </trkpt>
      <trkpt lat="47.03864" lon="5.41262">
        <ele>193.362305</ele>
        <time>2012-03-23T14:20:32Z</time>
      </trkpt>
      <trkpt lat="47.03848" lon="5.41271">
        <ele>192.401123</ele>
        <time>2012-03-23T14:20:40Z</time>
      </trkpt>
      <trkpt lat="47.03845" lon="5.41278">
        <ele>193.362305</ele>
        <time>2012-03-23T14:20:46Z</time>
      </trkpt>
      <trkpt lat="47.03851" lon="5.41293">
        <ele>193.362305</ele>
        <time>2012-03-23T14:20:50Z</time>
      </trkpt>
      <trkpt lat="47.03846" lon="5.41314">
        <ele>193.362305</ele>
        <time>2012-03-23T14:20:55Z</time>
      </trkpt>
      <trkpt lat="47.03828" lon="5.41326">
        <ele>192.881714</ele>
        <time>2012-03-23T14:20:59Z</time>
      </trkpt>
      <trkpt lat="47.03815" lon="5.41331">
        <ele>193.362305</ele>
        <time>2012-03-23T14:21:01Z</time>
      </trkpt>
      <trkpt lat="47.03805" lon="5.41332">
        <ele>192.881714</ele>
        <time>2012-03-23T14:21:03Z</time>
      </trkpt>
      <trkpt lat="47.03763" lon="5.41324">
        <ele>193.843018</ele>
        <time>2012-03-23T14:21:11Z</time>
      </trkpt>
      <trkpt lat="47.03722" lon="5.41296">
        <ele>193.362305</ele>
        <time>2012-03-23T14:21:19Z</time>
      </trkpt>
      <trkpt lat="47.03613" lon="5.41146">
        <ele>193.362305</ele>
        <time>2012-03-23T14:21:43Z</time>
      </trkpt>
      <trkpt lat="47.03566" lon="5.41045">
        <ele>193.362305</ele>
        <time>2012-03-23T14:21:56Z</time>
      </trkpt>
      <trkpt lat="47.03558" lon="5.41015">
        <ele>193.362305</ele>
        <time>2012-03-23T14:22:00Z</time>
      </trkpt>
      <trkpt lat="47.03537" lon="5.41009">
        <ele>192.881714</ele>
        <time>2012-03-23T14:22:05Z</time>
      </trkpt>
      <trkpt lat="47.0351" lon="5.40991">
        <ele>192.401123</ele>
        <time>2012-03-23T14:22:10Z</time>
      </trkpt>
      <trkpt lat="47.03413" lon="5.40853">
        <ele>193.362305</ele>
        <time>2012-03-23T14:22:31Z</time>
      </trkpt>
      <trkpt lat="47.03362" lon="5.408">
        <ele>192.881714</ele>
        <time>2012-03-23T14:22:41Z</time>
      </trkpt>
      <trkpt lat="47.03343" lon="5.40776">
        <ele>192.881714</ele>
        <time>2012-03-23T14:22:45Z</time>
      </trkpt>
      <trkpt lat="47.03318" lon="5.40792">
        <ele>193.843018</ele>
        <time>2012-03-23T14:22:50Z</time>
      </trkpt>
      <trkpt lat="47.03286" lon="5.40792">
        <ele>194.32373</ele>
        <time>2012-03-23T14:22:57Z</time>
      </trkpt>
      <trkpt lat="47.03236" lon="5.4072">
        <ele>198.168945</ele>
        <time>2012-03-23T14:23:11Z</time>
      </trkpt>
      <trkpt lat="47.03231" lon="5.40717">
        <ele>198.649536</ele>
        <time>2012-03-23T14:23:12Z</time>
      </trkpt>
      <trkpt lat="47.03206" lon="5.40707">
        <ele>199.130127</ele>
        <time>2012-03-23T14:23:17Z</time>
      </trkpt>
      <trkpt lat="47.03116" lon="5.40729">
        <ele>199.130127</ele>
        <time>2012-03-23T14:23:33Z</time>
      </trkpt>
      <trkpt lat="47.03104" lon="5.40736">
        <ele>198.649536</ele>
        <time>2012-03-23T14:23:35Z</time>
      </trkpt>
      <trkpt lat="47.03071" lon="5.40778">
        <ele>197.20752</ele>
        <time>2012-03-23T14:23:41Z</time>
      </trkpt>
      <trkpt lat="47.03043" lon="5.40768">
        <ele>195.284912</ele>
        <time>2012-03-23T14:23:47Z</time>
      </trkpt>
      <trkpt lat="47.03069" lon="5.40734">
        <ele>195.284912</ele>
        <time>2012-03-23T14:23:52Z</time>
      </trkpt>
      <trkpt lat="47.03099" lon="5.40714">
        <ele>194.804321</ele>
        <time>2012-03-23T14:23:57Z</time>
      </trkpt>
      <trkpt lat="47.0312" lon="5.40647">
        <ele>193.362305</ele>
        <time>2012-03-23T14:24:06Z</time>
      </trkpt>
      <trkpt lat="47.03115" lon="5.4063">
        <ele>192.881714</ele>
        <time>2012-03-23T14:24:08Z</time>
      </trkpt>
      <trkpt lat="47.03079" lon="5.40552">
        <ele>193.362305</ele>
        <time>2012-03-23T14:24:18Z</time>
      </trkpt>
      <trkpt lat="47.0306" lon="5.40529">
        <ele>192.881714</ele>
        <time>2012-03-23T14:24:22Z</time>
      </trkpt>
      <trkpt lat="47.02922" lon="5.40436">
        <ele>192.401123</ele>
        <time>2012-03-23T14:24:44Z</time>
      </trkpt>
      <trkpt lat="47.02712" lon="5.40294">
        <ele>192.881714</ele>
        <time>2012-03-23T14:25:16Z</time>
      </trkpt>
      <trkpt lat="47.02594" lon="5.40199">
        <ele>192.881714</ele>
        <time>2012-03-23T14:25:34Z</time>
      </trkpt>
      <trkpt lat="47.02425" lon="5.40044">
        <ele>193.362305</ele>
        <time>2012-03-23T14:26:02Z</time>
      </trkpt>
      <trkpt lat="47.0227" lon="5.39895">
        <ele>193.362305</ele>
        <time>2012-03-23T14:26:28Z</time>
      </trkpt>
      <trkpt lat="47.0214" lon="5.39761">
        <ele>193.362305</ele>
        <time>2012-03-23T14:26:51Z</time>
      </trkpt>
      <trkpt lat="47.01978" lon="5.39588">
        <ele>192.401123</ele>
        <time>2012-03-23T14:27:19Z</time>
      </trkpt>
      <trkpt lat="47.01802" lon="5.39426">
        <ele>191.439575</ele>
        <time>2012-03-23T14:27:48Z</time>
      </trkpt>
      <trkpt lat="47.01616" lon="5.39252">
        <ele>191.920288</ele>
        <time>2012-03-23T14:28:18Z</time>
      </trkpt>
      <trkpt lat="47.01482" lon="5.39144">
        <ele>192.401123</ele>
        <time>2012-03-23T14:28:39Z</time>
      </trkpt>
      <trkpt lat="47.01258" lon="5.38969">
        <ele>192.881714</ele>
        <time>2012-03-23T14:29:13Z</time>
      </trkpt>
      <trkpt lat="47.01136" lon="5.38907">
        <ele>192.401123</ele>
        <time>2012-03-23T14:29:30Z</time>
      </trkpt>
      <trkpt lat="47.01082" lon="5.38888">
        <ele>191.920288</ele>
        <time>2012-03-23T14:29:38Z</time>
      </trkpt>
      <trkpt lat="47.01047" lon="5.38865">
        <ele>190.958984</ele>
        <time>2012-03-23T14:29:44Z</time>
      </trkpt>
      <trkpt lat="47.01026" lon="5.38844">
        <ele>190.958984</ele>
        <time>2012-03-23T14:29:48Z</time>
      </trkpt>
      <trkpt lat="47.00969" lon="5.38827">
        <ele>190.958984</ele>
        <time>2012-03-23T14:29:57Z</time>
      </trkpt>
      <trkpt lat="47.00944" lon="5.38834">
        <ele>191.439575</ele>
        <time>2012-03-23T14:30:01Z</time>
      </trkpt>
      <trkpt lat="47.00924" lon="5.38804">
        <ele>191.439575</ele>
        <time>2012-03-23T14:30:07Z</time>
      </trkpt>
      <trkpt lat="47.00924" lon="5.38787">
        <ele>191.439575</ele>
        <time>2012-03-23T14:30:09Z</time>
      </trkpt>
      <trkpt lat="47.00944" lon="5.38644">
        <ele>192.401123</ele>
        <time>2012-03-23T14:30:25Z</time>
      </trkpt>
      <trkpt lat="47.00945" lon="5.38628">
        <ele>191.920288</ele>
        <time>2012-03-23T14:30:27Z</time>
      </trkpt>
      <trkpt lat="47.00942" lon="5.38594">
        <ele>191.920288</ele>
        <time>2012-03-23T14:30:32Z</time>
      </trkpt>
      <trkpt lat="47.00946" lon="5.38486">
        <ele>191.920288</ele>
        <time>2012-03-23T14:30:46Z</time>
      </trkpt>
      <trkpt lat="47.00941" lon="5.38328">
        <ele>191.920288</ele>
        <time>2012-03-23T14:31:04Z</time>
      </trkpt>
      <trkpt lat="47.00937" lon="5.38249">
        <ele>191.439575</ele>
        <time>2012-03-23T14:31:13Z</time>
      </trkpt>
      <trkpt lat="47.00926" lon="5.38218">
        <ele>190.958984</ele>
        <time>2012-03-23T14:31:17Z</time>
      </trkpt>
      <trkpt lat="47.00832" lon="5.38065">
        <ele>191.439575</ele>
        <time>2012-03-23T14:31:40Z</time>
      </trkpt>
      <trkpt lat="47.00771" lon="5.37969">
        <ele>191.439575</ele>
        <time>2012-03-23T14:31:54Z</time>
      </trkpt>
      <trkpt lat="47.00755" lon="5.37885">
        <ele>191.439575</ele>
        <time>2012-03-23T14:32:04Z</time>
      </trkpt>
      <trkpt lat="47.0074" lon="5.37762">
        <ele>191.439575</ele>
        <time>2012-03-23T14:32:18Z</time>
      </trkpt>
      <trkpt lat="47.00725" lon="5.37742">
        <ele>191.439575</ele>
        <time>2012-03-23T14:32:23Z</time>
      </trkpt>
      <trkpt lat="47.00668" lon="5.3774">
        <ele>192.401123</ele>
        <time>2012-03-23T14:32:35Z</time>
      </trkpt>
      <trkpt lat="47.00548" lon="5.37736">
        <ele>192.401123</ele>
        <time>2012-03-23T14:32:53Z</time>
      </trkpt>
      <trkpt lat="47.00419" lon="5.37714">
        <ele>192.401123</ele>
        <time>2012-03-23T14:33:12Z</time>
      </trkpt>
      <trkpt lat="47.00289" lon="5.37668">
        <ele>191.920288</ele>
        <time>2012-03-23T14:33:31Z</time>
      </trkpt>
      <trkpt lat="47.0015" lon="5.37569">
        <ele>191.920288</ele>
        <time>2012-03-23T14:33:53Z</time>
      </trkpt>
      <trkpt lat="46.9993" lon="5.37413">
        <ele>191.439575</ele>
        <time>2012-03-23T14:34:27Z</time>
      </trkpt>
      <trkpt lat="46.99729" lon="5.37263">
        <ele>191.920288</ele>
        <time>2012-03-23T14:34:58Z</time>
      </trkpt>
      <trkpt lat="46.99621" lon="5.37163">
        <ele>191.920288</ele>
        <time>2012-03-23T14:35:16Z</time>
      </trkpt>
      <trkpt lat="46.99479" lon="5.37075">
        <ele>191.439575</ele>
        <time>2012-03-23T14:35:37Z</time>
      </trkpt>
      <trkpt lat="46.99387" lon="5.37052">
        <ele>191.920288</ele>
        <time>2012-03-23T14:35:50Z</time>
      </trkpt>
      <trkpt lat="46.99312" lon="5.37077">
        <ele>190.958984</ele>
        <time>2012-03-23T14:36:01Z</time>
      </trkpt>
      <trkpt lat="46.9928" lon="5.37043">
        <ele>190.478394</ele>
        <time>2012-03-23T14:36:07Z</time>
      </trkpt>
      <trkpt lat="46.99257" lon="5.36978">
        <ele>190.478394</ele>
        <time>2012-03-23T14:36:15Z</time>
      </trkpt>
      <trkpt lat="46.99255" lon="5.36948">
        <ele>189.997681</ele>
        <time>2012-03-23T14:36:19Z</time>
      </trkpt>
      <trkpt lat="46.9926" lon="5.36894">
        <ele>190.478394</ele>
        <time>2012-03-23T14:36:26Z</time>
      </trkpt>
      <trkpt lat="46.99248" lon="5.3685">
        <ele>190.478394</ele>
        <time>2012-03-23T14:36:32Z</time>
      </trkpt>
      <trkpt lat="46.9918" lon="5.36738">
        <ele>189.516968</ele>
        <time>2012-03-23T14:36:51Z</time>
      </trkpt>
      <trkpt lat="46.99176" lon="5.36733">
        <ele>189.036377</ele>
        <time>2012-03-23T14:37:02Z</time>
      </trkpt>
      <trkpt lat="46.99175" lon="5.36732">
        <ele>189.516968</ele>
        <time>2012-03-23T14:37:07Z</time>
      </trkpt>
      <trkpt lat="46.99169" lon="5.36729">
        <ele>189.516968</ele>
        <time>2012-03-23T14:37:11Z</time>
      </trkpt>
      <trkpt lat="46.99119" lon="5.36742">
        <ele>189.997681</ele>
        <time>2012-03-23T14:37:25Z</time>
      </trkpt>
      <trkpt lat="46.99037" lon="5.36771">
        <ele>189.997681</ele>
        <time>2012-03-23T14:37:41Z</time>
      </trkpt>
      <trkpt lat="46.98956" lon="5.36766">
        <ele>190.478394</ele>
        <time>2012-03-23T14:37:55Z</time>
      </trkpt>
      <trkpt lat="46.98833" lon="5.36719">
        <ele>189.997681</ele>
        <time>2012-03-23T14:38:16Z</time>
      </trkpt>
      <trkpt lat="46.98711" lon="5.36683">
        <ele>190.478394</ele>
        <time>2012-03-23T14:38:37Z</time>
      </trkpt>
      <trkpt lat="46.98681" lon="5.36679">
        <ele>190.478394</ele>
        <time>2012-03-23T14:38:42Z</time>
      </trkpt>
      <trkpt lat="46.98663" lon="5.3666">
        <ele>190.958984</ele>
        <time>2012-03-23T14:38:46Z</time>
      </trkpt>
      <trkpt lat="46.98597" lon="5.36587">
        <ele>189.997681</ele>
        <time>2012-03-23T14:38:59Z</time>
      </trkpt>
      <trkpt lat="46.9845" lon="5.36494">
        <ele>189.516968</ele>
        <time>2012-03-23T14:39:23Z</time>
      </trkpt>
      <trkpt lat="46.98291" lon="5.36399">
        <ele>189.997681</ele>
        <time>2012-03-23T14:39:49Z</time>
      </trkpt>
      <trkpt lat="46.98267" lon="5.36374">
        <ele>189.516968</ele>
        <time>2012-03-23T14:39:53Z</time>
      </trkpt>
      <trkpt lat="46.98211" lon="5.36243">
        <ele>189.997681</ele>
        <time>2012-03-23T14:40:08Z</time>
      </trkpt>
      <trkpt lat="46.98143" lon="5.36138">
        <ele>189.516968</ele>
        <time>2012-03-23T14:40:22Z</time>
      </trkpt>
      <trkpt lat="46.98053" lon="5.36098">
        <ele>189.036377</ele>
        <time>2012-03-23T14:40:36Z</time>
      </trkpt>
      <trkpt lat="46.97908" lon="5.36088">
        <ele>188.555786</ele>
        <time>2012-03-23T14:40:57Z</time>
      </trkpt>
      <trkpt lat="46.97727" lon="5.36073">
        <ele>189.516968</ele>
        <time>2012-03-23T14:41:23Z</time>
      </trkpt>
      <trkpt lat="46.97478" lon="5.36052">
        <ele>189.036377</ele>
        <time>2012-03-23T14:41:59Z</time>
      </trkpt>
      <trkpt lat="46.9725" lon="5.36034">
        <ele>189.516968</ele>
        <time>2012-03-23T14:42:31Z</time>
      </trkpt>
      <trkpt lat="46.9696" lon="5.36009">
        <ele>189.036377</ele>
        <time>2012-03-23T14:43:11Z</time>
      </trkpt>
      <trkpt lat="46.96723" lon="5.35995">
        <ele>188.555786</ele>
        <time>2012-03-23T14:43:44Z</time>
      </trkpt>
      <trkpt lat="46.96623" lon="5.36049">
        <ele>189.036377</ele>
        <time>2012-03-23T14:43:59Z</time>
      </trkpt>
      <trkpt lat="46.96535" lon="5.36137">
        <ele>188.555786</ele>
        <time>2012-03-23T14:44:14Z</time>
      </trkpt>
      <trkpt lat="46.96412" lon="5.36286">
        <ele>188.555786</ele>
        <time>2012-03-23T14:44:37Z</time>
      </trkpt>
      <trkpt lat="46.96275" lon="5.36411">
        <ele>188.555786</ele>
        <time>2012-03-23T14:45:01Z</time>
      </trkpt>
      <trkpt lat="46.96152" lon="5.36614">
        <ele>188.075073</ele>
        <time>2012-03-23T14:45:28Z</time>
      </trkpt>
      <trkpt lat="46.96089" lon="5.36742">
        <ele>188.075073</ele>
        <time>2012-03-23T14:45:44Z</time>
      </trkpt>
      <trkpt lat="46.96066" lon="5.36761">
        <ele>188.555786</ele>
        <time>2012-03-23T14:45:48Z</time>
      </trkpt>
      <trkpt lat="46.95977" lon="5.36832">
        <ele>188.555786</ele>
        <time>2012-03-23T14:46:03Z</time>
      </trkpt>
      <trkpt lat="46.95953" lon="5.36868">
        <ele>188.075073</ele>
        <time>2012-03-23T14:46:08Z</time>
      </trkpt>
      <trkpt lat="46.95939" lon="5.36892">
        <ele>188.075073</ele>
        <time>2012-03-23T14:46:11Z</time>
      </trkpt>
      <trkpt lat="46.95883" lon="5.37038">
        <ele>188.555786</ele>
        <time>2012-03-23T14:46:28Z</time>
      </trkpt>
      <trkpt lat="46.95815" lon="5.37218">
        <ele>187.59436</ele>
        <time>2012-03-23T14:46:50Z</time>
      </trkpt>
      <trkpt lat="46.95802" lon="5.37246">
        <ele>187.59436</ele>
        <time>2012-03-23T14:46:58Z</time>
      </trkpt>
      <trkpt lat="46.9577" lon="5.37217">
        <ele>187.59436</ele>
        <time>2012-03-23T14:47:11Z</time>
      </trkpt>
      <trkpt lat="46.95696" lon="5.37147">
        <ele>188.555786</ele>
        <time>2012-03-23T14:47:31Z</time>
      </trkpt>
      <trkpt lat="46.95594" lon="5.37053">
        <ele>188.075073</ele>
        <time>2012-03-23T14:47:53Z</time>
      </trkpt>
      <trkpt lat="46.95475" lon="5.36931">
        <ele>188.555786</ele>
        <time>2012-03-23T14:48:17Z</time>
      </trkpt>
      <trkpt lat="46.95463" lon="5.36878">
        <ele>188.075073</ele>
        <time>2012-03-23T14:48:23Z</time>
      </trkpt>
      <trkpt lat="46.95454" lon="5.36696">
        <ele>188.555786</ele>
        <time>2012-03-23T14:48:42Z</time>
      </trkpt>
      <trkpt lat="46.95412" lon="5.36497">
        <ele>188.555786</ele>
        <time>2012-03-23T14:49:03Z</time>
      </trkpt>
      <trkpt lat="46.95336" lon="5.36378">
        <ele>188.555786</ele>
        <time>2012-03-23T14:49:19Z</time>
      </trkpt>
      <trkpt lat="46.95239" lon="5.3631">
        <ele>188.555786</ele>
        <time>2012-03-23T14:49:35Z</time>
      </trkpt>
      <trkpt lat="46.95123" lon="5.3628">
        <ele>188.555786</ele>
        <time>2012-03-23T14:49:51Z</time>
      </trkpt>
      <trkpt lat="46.95085" lon="5.36273">
        <ele>188.555786</ele>
        <time>2012-03-23T14:49:56Z</time>
      </trkpt>
      <trkpt lat="46.95059" lon="5.36258">
        <ele>188.555786</ele>
        <time>2012-03-23T14:50:00Z</time>
      </trkpt>
      <trkpt lat="46.94965" lon="5.36145">
        <ele>188.555786</ele>
        <time>2012-03-23T14:50:17Z</time>
      </trkpt>
      <trkpt lat="46.94866" lon="5.36013">
        <ele>188.075073</ele>
        <time>2012-03-23T14:50:35Z</time>
      </trkpt>
      <trkpt lat="46.94766" lon="5.35829">
        <ele>187.59436</ele>
        <time>2012-03-23T14:50:56Z</time>
      </trkpt>
      <trkpt lat="46.94655" lon="5.35597">
        <ele>187.59436</ele>
        <time>2012-03-23T14:51:21Z</time>
      </trkpt>
      <trkpt lat="46.94549" lon="5.35375">
        <ele>187.11377</ele>
        <time>2012-03-23T14:51:45Z</time>
      </trkpt>
      <trkpt lat="46.94408" lon="5.35104">
        <ele>186.633179</ele>
        <time>2012-03-23T14:52:15Z</time>
      </trkpt>
      <trkpt lat="46.94228" lon="5.34833">
        <ele>186.633179</ele>
        <time>2012-03-23T14:52:47Z</time>
      </trkpt>
      <trkpt lat="46.94049" lon="5.34635">
        <ele>186.633179</ele>
        <time>2012-03-23T14:53:15Z</time>
      </trkpt>
      <trkpt lat="46.9393" lon="5.3453">
        <ele>186.633179</ele>
        <time>2012-03-23T14:53:33Z</time>
      </trkpt>
      <trkpt lat="46.93897" lon="5.34463">
        <ele>186.633179</ele>
        <time>2012-03-23T14:53:41Z</time>
      </trkpt>
      <trkpt lat="46.93844" lon="5.34343">
        <ele>185.671753</ele>
        <time>2012-03-23T14:53:55Z</time>
      </trkpt>
      <trkpt lat="46.93818" lon="5.34326">
        <ele>185.191162</ele>
        <time>2012-03-23T14:54:00Z</time>
      </trkpt>
      <trkpt lat="46.9379" lon="5.34336">
        <ele>185.191162</ele>
        <time>2012-03-23T14:54:05Z</time>
      </trkpt>
      <trkpt lat="46.93762" lon="5.3434">
        <ele>185.191162</ele>
        <time>2012-03-23T14:54:10Z</time>
      </trkpt>
      <trkpt lat="46.93654" lon="5.34319">
        <ele>185.671753</ele>
        <time>2012-03-23T14:54:29Z</time>
      </trkpt>
      <trkpt lat="46.93574" lon="5.34316">
        <ele>185.671753</ele>
        <time>2012-03-23T14:54:43Z</time>
      </trkpt>
      <trkpt lat="46.93497" lon="5.34317">
        <ele>186.152466</ele>
        <time>2012-03-23T14:54:58Z</time>
      </trkpt>
      <trkpt lat="46.93452" lon="5.34338">
        <ele>186.633179</ele>
        <time>2012-03-23T14:55:08Z</time>
      </trkpt>
      <trkpt lat="46.93374" lon="5.34387">
        <ele>186.152466</ele>
        <time>2012-03-23T14:55:25Z</time>
      </trkpt>
      <trkpt lat="46.93277" lon="5.34417">
        <ele>186.152466</ele>
        <time>2012-03-23T14:55:43Z</time>
      </trkpt>
      <trkpt lat="46.93247" lon="5.34441">
        <ele>186.152466</ele>
        <time>2012-03-23T14:55:49Z</time>
      </trkpt>
      <trkpt lat="46.93233" lon="5.34456">
        <ele>186.152466</ele>
        <time>2012-03-23T14:55:52Z</time>
      </trkpt>
      <trkpt lat="46.9318" lon="5.34548">
        <ele>186.152466</ele>
        <time>2012-03-23T14:56:06Z</time>
      </trkpt>
      <trkpt lat="46.93131" lon="5.34682">
        <ele>186.152466</ele>
        <time>2012-03-23T14:56:23Z</time>
      </trkpt>
      <trkpt lat="46.93128" lon="5.3469">
        <ele>185.671753</ele>
        <time>2012-03-23T14:56:24Z</time>
      </trkpt>
      <trkpt lat="46.93065" lon="5.34794">
        <ele>186.633179</ele>
        <time>2012-03-23T14:56:39Z</time>
      </trkpt>
      <trkpt lat="46.93024" lon="5.34904">
        <ele>186.152466</ele>
        <time>2012-03-23T14:56:53Z</time>
      </trkpt>
      <trkpt lat="46.92978" lon="5.34956">
        <ele>186.633179</ele>
        <time>2012-03-23T14:57:03Z</time>
      </trkpt>
      <trkpt lat="46.92864" lon="5.34948">
        <ele>185.671753</ele>
        <time>2012-03-23T14:57:22Z</time>
      </trkpt>
      <trkpt lat="46.9274" lon="5.3496">
        <ele>185.671753</ele>
        <time>2012-03-23T14:57:42Z</time>
      </trkpt>
      <trkpt lat="46.92608" lon="5.34973">
        <ele>185.191162</ele>
        <time>2012-03-23T14:58:03Z</time>
      </trkpt>
      <trkpt lat="46.92488" lon="5.3498">
        <ele>185.671753</ele>
        <time>2012-03-23T14:58:21Z</time>
      </trkpt>
      <trkpt lat="46.9235" lon="5.35007">
        <ele>186.633179</ele>
        <time>2012-03-23T14:58:43Z</time>
      </trkpt>
      <trkpt lat="46.92298" lon="5.35024">
        <ele>188.555786</ele>
        <time>2012-03-23T14:58:55Z</time>
      </trkpt>
      <trkpt lat="46.92249" lon="5.35042">
        <ele>189.516968</ele>
        <time>2012-03-23T14:59:06Z</time>
      </trkpt>
      <trkpt lat="46.92232" lon="5.35046">
        <ele>189.516968</ele>
        <time>2012-03-23T14:59:09Z</time>
      </trkpt>
      <trkpt lat="46.922" lon="5.35056">
        <ele>189.997681</ele>
        <time>2012-03-23T14:59:15Z</time>
      </trkpt>
      <trkpt lat="46.92164" lon="5.35032">
        <ele>190.478394</ele>
        <time>2012-03-23T14:59:23Z</time>
      </trkpt>
      <trkpt lat="46.92161" lon="5.35025">
        <ele>190.478394</ele>
        <time>2012-03-23T14:59:24Z</time>
      </trkpt>
      <trkpt lat="46.92128" lon="5.3493">
        <ele>192.401123</ele>
        <time>2012-03-23T14:59:38Z</time>
      </trkpt>
      <trkpt lat="46.92109" lon="5.34877">
        <ele>193.843018</ele>
        <time>2012-03-23T14:59:46Z</time>
      </trkpt>
      <trkpt lat="46.92092" lon="5.34844">
        <ele>194.32373</ele>
        <time>2012-03-23T14:59:52Z</time>
      </trkpt>
      <trkpt lat="46.92055" lon="5.34784">
        <ele>197.688232</ele>
        <time>2012-03-23T15:00:04Z</time>
      </trkpt>
      <trkpt lat="46.92051" lon="5.3478">
        <ele>198.649536</ele>
        <time>2012-03-23T15:00:05Z</time>
      </trkpt>
      <trkpt lat="46.92043" lon="5.34764">
        <ele>199.61084</ele>
        <time>2012-03-23T15:00:08Z</time>
      </trkpt>
      <trkpt lat="46.92033" lon="5.34748">
        <ele>199.61084</ele>
        <time>2012-03-23T15:00:11Z</time>
      </trkpt>
      <trkpt lat="46.92019" lon="5.34724">
        <ele>200.572266</ele>
        <time>2012-03-23T15:00:16Z</time>
      </trkpt>
      <trkpt lat="46.92004" lon="5.34707">
        <ele>201.533569</ele>
        <time>2012-03-23T15:00:20Z</time>
      </trkpt>
      <trkpt lat="46.91982" lon="5.34677">
        <ele>204.41748</ele>
        <time>2012-03-23T15:00:27Z</time>
      </trkpt>
      <trkpt lat="46.91972" lon="5.34658">
        <ele>204.41748</ele>
        <time>2012-03-23T15:00:31Z</time>
      </trkpt>
      <trkpt lat="46.91956" lon="5.34621">
        <ele>205.859497</ele>
        <time>2012-03-23T15:00:37Z</time>
      </trkpt>
      <trkpt lat="46.91933" lon="5.34604">
        <ele>206.820679</ele>
        <time>2012-03-23T15:00:42Z</time>
      </trkpt>
      <trkpt lat="46.9191" lon="5.34585">
        <ele>207.301392</ele>
        <time>2012-03-23T15:00:47Z</time>
      </trkpt>
      <trkpt lat="46.91881" lon="5.34565">
        <ele>206.820679</ele>
        <time>2012-03-23T15:00:53Z</time>
      </trkpt>
      <trkpt lat="46.91854" lon="5.34562">
        <ele>207.301392</ele>
        <time>2012-03-23T15:00:58Z</time>
      </trkpt>
      <trkpt lat="46.91779" lon="5.34587">
        <ele>208.743408</ele>
        <time>2012-03-23T15:01:14Z</time>
      </trkpt>
      <trkpt lat="46.91706" lon="5.34613">
        <ele>207.301392</ele>
        <time>2012-03-23T15:01:28Z</time>
      </trkpt>
      <trkpt lat="46.91663" lon="5.34629">
        <ele>206.820679</ele>
        <time>2012-03-23T15:01:36Z</time>
      </trkpt>
      <trkpt lat="46.91612" lon="5.34649">
        <ele>205.859497</ele>
        <time>2012-03-23T15:01:45Z</time>
      </trkpt>
      <trkpt lat="46.91548" lon="5.34667">
        <ele>206.820679</ele>
        <time>2012-03-23T15:01:55Z</time>
      </trkpt>
      <trkpt lat="46.91446" lon="5.34703">
        <ele>208.743408</ele>
        <time>2012-03-23T15:02:12Z</time>
      </trkpt>
      <trkpt lat="46.91361" lon="5.34732">
        <ele>207.301392</ele>
        <time>2012-03-23T15:02:24Z</time>
      </trkpt>
      <trkpt lat="46.91351" lon="5.34734">
        <ele>206.820679</ele>
        <time>2012-03-23T15:02:25Z</time>
      </trkpt>
      <trkpt lat="46.91273" lon="5.34762">
        <ele>206.820679</ele>
        <time>2012-03-23T15:02:35Z</time>
      </trkpt>
      <trkpt lat="46.91206" lon="5.34783">
        <ele>207.782104</ele>
        <time>2012-03-23T15:02:44Z</time>
      </trkpt>
      <trkpt lat="46.91182" lon="5.34791">
        <ele>209.224121</ele>
        <time>2012-03-23T15:02:48Z</time>
      </trkpt>
      <trkpt lat="46.91127" lon="5.34809">
        <ele>211.146729</ele>
        <time>2012-03-23T15:02:57Z</time>
      </trkpt>
      <trkpt lat="46.91039" lon="5.3484">
        <ele>213.550049</ele>
        <time>2012-03-23T15:03:12Z</time>
      </trkpt>
      <trkpt lat="46.90989" lon="5.34859">
        <ele>214.03064</ele>
        <time>2012-03-23T15:03:23Z</time>
      </trkpt>
      <trkpt lat="46.9093" lon="5.34883">
        <ele>214.03064</ele>
        <time>2012-03-23T15:03:33Z</time>
      </trkpt>
      <trkpt lat="46.90886" lon="5.34899">
        <ele>214.03064</ele>
        <time>2012-03-23T15:03:41Z</time>
      </trkpt>
      <trkpt lat="46.90757" lon="5.34943">
        <ele>214.03064</ele>
        <time>2012-03-23T15:03:59Z</time>
      </trkpt>
      <trkpt lat="46.90702" lon="5.34961">
        <ele>213.550049</ele>
        <time>2012-03-23T15:04:08Z</time>
      </trkpt>
      <trkpt lat="46.90615" lon="5.3499">
        <ele>214.03064</ele>
        <time>2012-03-23T15:04:22Z</time>
      </trkpt>
      <trkpt lat="46.90544" lon="5.35017">
        <ele>214.51123</ele>
        <time>2012-03-23T15:04:33Z</time>
      </trkpt>
      <trkpt lat="46.90473" lon="5.35041">
        <ele>214.03064</ele>
        <time>2012-03-23T15:04:44Z</time>
      </trkpt>
      <trkpt lat="46.90412" lon="5.35058">
        <ele>213.069336</ele>
        <time>2012-03-23T15:04:52Z</time>
      </trkpt>
      <trkpt lat="46.90333" lon="5.35093">
        <ele>211.627441</ele>
        <time>2012-03-23T15:05:01Z</time>
      </trkpt>
      <trkpt lat="46.90212" lon="5.35133">
        <ele>208.262817</ele>
        <time>2012-03-23T15:05:10Z</time>
      </trkpt>
      <trkpt lat="46.90131" lon="5.35154">
        <ele>208.262817</ele>
        <time>2012-03-23T15:05:21Z</time>
      </trkpt>
      <trkpt lat="46.9005" lon="5.35174">
        <ele>209.704834</ele>
        <time>2012-03-23T15:05:32Z</time>
      </trkpt>
      <trkpt lat="46.90004" lon="5.35191">
        <ele>210.185425</ele>
        <time>2012-03-23T15:05:39Z</time>
      </trkpt>
      <trkpt lat="46.89929" lon="5.35209">
        <ele>209.224121</ele>
        <time>2012-03-23T15:05:49Z</time>
      </trkpt>
      <trkpt lat="46.89841" lon="5.35231">
        <ele>205.859497</ele>
        <time>2012-03-23T15:06:00Z</time>
      </trkpt>
      <trkpt lat="46.89686" lon="5.35275">
        <ele>202.494873</ele>
        <time>2012-03-23T15:06:17Z</time>
      </trkpt>
      <trkpt lat="46.89498" lon="5.35327">
        <ele>201.533569</ele>
        <time>2012-03-23T15:06:38Z</time>
      </trkpt>
      <trkpt lat="46.89313" lon="5.35383">
        <ele>201.533569</ele>
        <time>2012-03-23T15:07:00Z</time>
      </trkpt>
      <trkpt lat="46.89199" lon="5.35416">
        <ele>204.41748</ele>
        <time>2012-03-23T15:07:15Z</time>
      </trkpt>
      <trkpt lat="46.8916" lon="5.35427">
        <ele>206.340088</ele>
        <time>2012-03-23T15:07:21Z</time>
      </trkpt>
      <trkpt lat="46.89106" lon="5.35443">
        <ele>207.782104</ele>
        <time>2012-03-23T15:07:32Z</time>
      </trkpt>
      <trkpt lat="46.89012" lon="5.35471">
        <ele>210.185425</ele>
        <time>2012-03-23T15:07:51Z</time>
      </trkpt>
      <trkpt lat="46.88931" lon="5.35519">
        <ele>211.627441</ele>
        <time>2012-03-23T15:08:07Z</time>
      </trkpt>
      <trkpt lat="46.88848" lon="5.35575">
        <ele>211.146729</ele>
        <time>2012-03-23T15:08:23Z</time>
      </trkpt>
      <trkpt lat="46.88823" lon="5.35594">
        <ele>209.704834</ele>
        <time>2012-03-23T15:08:27Z</time>
      </trkpt>
      <trkpt lat="46.8873" lon="5.35708">
        <ele>209.224121</ele>
        <time>2012-03-23T15:08:44Z</time>
      </trkpt>
      <trkpt lat="46.88645" lon="5.35833">
        <ele>208.743408</ele>
        <time>2012-03-23T15:09:02Z</time>
      </trkpt>
      <trkpt lat="46.88622" lon="5.35865">
        <ele>208.743408</ele>
        <time>2012-03-23T15:09:07Z</time>
      </trkpt>
      <trkpt lat="46.88587" lon="5.35923">
        <ele>209.704834</ele>
        <time>2012-03-23T15:09:15Z</time>
      </trkpt>
      <trkpt lat="46.88543" lon="5.36016">
        <ele>210.666016</ele>
        <time>2012-03-23T15:09:28Z</time>
      </trkpt>
      <trkpt lat="46.88456" lon="5.36078">
        <ele>212.588623</ele>
        <time>2012-03-23T15:09:45Z</time>
      </trkpt>
      <trkpt lat="46.88364" lon="5.36104">
        <ele>213.550049</ele>
        <time>2012-03-23T15:10:01Z</time>
      </trkpt>
      <trkpt lat="46.88342" lon="5.36114">
        <ele>213.550049</ele>
        <time>2012-03-23T15:10:05Z</time>
      </trkpt>
      <trkpt lat="46.8826" lon="5.36218">
        <ele>214.991943</ele>
        <time>2012-03-23T15:10:23Z</time>
      </trkpt>
      <trkpt lat="46.88245" lon="5.36243">
        <ele>215.472656</ele>
        <time>2012-03-23T15:10:27Z</time>
      </trkpt>
      <trkpt lat="46.88243" lon="5.36271">
        <ele>214.991943</ele>
        <time>2012-03-23T15:10:32Z</time>
      </trkpt>
      <trkpt lat="46.88238" lon="5.36319">
        <ele>215.472656</ele>
        <time>2012-03-23T15:10:39Z</time>
      </trkpt>
      <trkpt lat="46.88236" lon="5.36332">
        <ele>214.991943</ele>
        <time>2012-03-23T15:10:41Z</time>
      </trkpt>
      <trkpt lat="46.8817" lon="5.36411">
        <ele>214.991943</ele>
        <time>2012-03-23T15:10:52Z</time>
      </trkpt>
      <trkpt lat="46.88149" lon="5.36439">
        <ele>214.991943</ele>
        <time>2012-03-23T15:10:56Z</time>
      </trkpt>
      <trkpt lat="46.88124" lon="5.36478">
        <ele>214.51123</ele>
        <time>2012-03-23T15:11:01Z</time>
      </trkpt>
      <trkpt lat="46.88032" lon="5.36635">
        <ele>214.03064</ele>
        <time>2012-03-23T15:11:22Z</time>
      </trkpt>
      <trkpt lat="46.88019" lon="5.36653">
        <ele>214.03064</ele>
        <time>2012-03-23T15:11:25Z</time>
      </trkpt>
      <trkpt lat="46.88009" lon="5.36672">
        <ele>214.03064</ele>
        <time>2012-03-23T15:11:28Z</time>
      </trkpt>
      <trkpt lat="46.87975" lon="5.36727">
        <ele>214.03064</ele>
        <time>2012-03-23T15:11:36Z</time>
      </trkpt>
      <trkpt lat="46.8793" lon="5.36788">
        <ele>213.069336</ele>
        <time>2012-03-23T15:11:45Z</time>
      </trkpt>
      <trkpt lat="46.87837" lon="5.36894">
        <ele>212.588623</ele>
        <time>2012-03-23T15:11:57Z</time>
      </trkpt>
      <trkpt lat="46.87785" lon="5.37009">
        <ele>209.224121</ele>
        <time>2012-03-23T15:12:08Z</time>
      </trkpt>
      <trkpt lat="46.87737" lon="5.37096">
        <ele>206.820679</ele>
        <time>2012-03-23T15:12:17Z</time>
      </trkpt>
      <trkpt lat="46.87701" lon="5.37132">
        <ele>208.743408</ele>
        <time>2012-03-23T15:12:23Z</time>
      </trkpt>
      <trkpt lat="46.87626" lon="5.37183">
        <ele>209.704834</ele>
        <time>2012-03-23T15:12:35Z</time>
      </trkpt>
      <trkpt lat="46.87558" lon="5.37227">
        <ele>206.820679</ele>
        <time>2012-03-23T15:12:44Z</time>
      </trkpt>
      <trkpt lat="46.87458" lon="5.37248">
        <ele>203.456177</ele>
        <time>2012-03-23T15:12:55Z</time>
      </trkpt>
      <trkpt lat="46.87367" lon="5.37237">
        <ele>206.340088</ele>
        <time>2012-03-23T15:13:07Z</time>
      </trkpt>
      <trkpt lat="46.87304" lon="5.37251">
        <ele>209.704834</ele>
        <time>2012-03-23T15:13:17Z</time>
      </trkpt>
      <trkpt lat="46.87209" lon="5.37333">
        <ele>207.782104</ele>
        <time>2012-03-23T15:13:32Z</time>
      </trkpt>
      <trkpt lat="46.87121" lon="5.37417">
        <ele>207.782104</ele>
        <time>2012-03-23T15:13:46Z</time>
      </trkpt>
      <trkpt lat="46.87118" lon="5.37463">
        <ele>207.782104</ele>
        <time>2012-03-23T15:13:54Z</time>
      </trkpt>
      <trkpt lat="46.87128" lon="5.37481">
        <ele>207.782104</ele>
        <time>2012-03-23T15:13:57Z</time>
      </trkpt>
      <trkpt lat="46.87155" lon="5.37515">
        <ele>207.301392</ele>
        <time>2012-03-23T15:14:03Z</time>
      </trkpt>
      <trkpt lat="46.87201" lon="5.37607">
        <ele>203.456177</ele>
        <time>2012-03-23T15:14:15Z</time>
      </trkpt>
      <trkpt lat="46.87261" lon="5.37727">
        <ele>202.494873</ele>
        <time>2012-03-23T15:14:30Z</time>
      </trkpt>
      <trkpt lat="46.87322" lon="5.3786">
        <ele>202.975464</ele>
        <time>2012-03-23T15:14:49Z</time>
      </trkpt>
      <trkpt lat="46.87331" lon="5.3788">
        <ele>202.494873</ele>
        <time>2012-03-23T15:14:52Z</time>
      </trkpt>
      <trkpt lat="46.87367" lon="5.37909">
        <ele>202.014282</ele>
        <time>2012-03-23T15:14:59Z</time>
      </trkpt>
      <trkpt lat="46.87488" lon="5.37916">
        <ele>201.533569</ele>
        <time>2012-03-23T15:15:19Z</time>
      </trkpt>
      <trkpt lat="46.87577" lon="5.37926">
        <ele>202.014282</ele>
        <time>2012-03-23T15:15:35Z</time>
      </trkpt>
      <trkpt lat="46.87633" lon="5.37945">
        <ele>201.533569</ele>
        <time>2012-03-23T15:15:49Z</time>
      </trkpt>
      <trkpt lat="46.87672" lon="5.37964">
        <ele>201.533569</ele>
        <time>2012-03-23T15:16:04Z</time>
      </trkpt>
      <trkpt lat="46.87699" lon="5.37977">
        <ele>202.494873</ele>
        <time>2012-03-23T15:16:18Z</time>
      </trkpt>
      <trkpt lat="46.87718" lon="5.37987">
        <ele>202.975464</ele>
        <time>2012-03-23T15:16:28Z</time>
      </trkpt>
      <trkpt lat="46.87722" lon="5.37988">
        <ele>202.494873</ele>
        <time>2012-03-23T15:16:31Z</time>
      </trkpt>
      <trkpt lat="46.87699" lon="5.37977">
        <ele>201.533569</ele>
        <time>2012-03-23T15:16:43Z</time>
      </trkpt>
      <trkpt lat="46.87696" lon="5.37977">
        <ele>201.533569</ele>
        <time>2012-03-23T15:16:57Z</time>
      </trkpt>
      <trkpt lat="46.87697" lon="5.37978">
        <ele>201.533569</ele>
        <time>2012-03-23T15:18:09Z</time>
      </trkpt>
      <trkpt lat="46.87717" lon="5.37992">
        <ele>202.494873</ele>
        <time>2012-03-23T15:18:23Z</time>
      </trkpt>
      <trkpt lat="46.87758" lon="5.38013">
        <ele>203.93689</ele>
        <time>2012-03-23T15:18:38Z</time>
      </trkpt>
      <trkpt lat="46.87806" lon="5.38035">
        <ele>205.859497</ele>
        <time>2012-03-23T15:18:52Z</time>
      </trkpt>
      <trkpt lat="46.87858" lon="5.38061">
        <ele>206.820679</ele>
        <time>2012-03-23T15:19:06Z</time>
      </trkpt>
      <trkpt lat="46.87931" lon="5.38096">
        <ele>206.820679</ele>
        <time>2012-03-23T15:19:21Z</time>
      </trkpt>
      <trkpt lat="46.87967" lon="5.38109">
        <ele>206.820679</ele>
        <time>2012-03-23T15:19:29Z</time>
      </trkpt>
      <trkpt lat="46.88003" lon="5.38117">
        <ele>207.301392</ele>
        <time>2012-03-23T15:19:39Z</time>
      </trkpt>
      <trkpt lat="46.88046" lon="5.38138">
        <ele>207.301392</ele>
        <time>2012-03-23T15:19:48Z</time>
      </trkpt>
      <trkpt lat="46.88071" lon="5.38152">
        <ele>207.301392</ele>
        <time>2012-03-23T15:19:54Z</time>
      </trkpt>
      <trkpt lat="46.88113" lon="5.38161">
        <ele>208.262817</ele>
        <time>2012-03-23T15:20:05Z</time>
      </trkpt>
      <trkpt lat="46.88151" lon="5.38166">
        <ele>207.782104</ele>
        <time>2012-03-23T15:20:14Z</time>
      </trkpt>
      <trkpt lat="46.88163" lon="5.38168">
        <ele>207.301392</ele>
        <time>2012-03-23T15:20:16Z</time>
      </trkpt>
      <trkpt lat="46.88216" lon="5.38187">
        <ele>206.820679</ele>
        <time>2012-03-23T15:20:24Z</time>
      </trkpt>
      <trkpt lat="46.88263" lon="5.382">
        <ele>207.782104</ele>
        <time>2012-03-23T15:20:30Z</time>
      </trkpt>
      <trkpt lat="46.88287" lon="5.38206">
        <ele>208.743408</ele>
        <time>2012-03-23T15:20:34Z</time>
      </trkpt>
      <trkpt lat="46.88292" lon="5.38207">
        <ele>209.224121</ele>
        <time>2012-03-23T15:20:35Z</time>
      </trkpt>
      <trkpt lat="46.88333" lon="5.38214">
        <ele>210.185425</ele>
        <time>2012-03-23T15:20:41Z</time>
      </trkpt>
      <trkpt lat="46.88344" lon="5.38216">
        <ele>210.185425</ele>
        <time>2012-03-23T15:20:43Z</time>
      </trkpt>
      <trkpt lat="46.88379" lon="5.3823">
        <ele>210.666016</ele>
        <time>2012-03-23T15:20:49Z</time>
      </trkpt>
      <trkpt lat="46.88444" lon="5.38273">
        <ele>211.627441</ele>
        <time>2012-03-23T15:21:00Z</time>
      </trkpt>
      <trkpt lat="46.88489" lon="5.38292">
        <ele>212.108032</ele>
        <time>2012-03-23T15:21:08Z</time>
      </trkpt>
      <trkpt lat="46.88514" lon="5.38301">
        <ele>212.108032</ele>
        <time>2012-03-23T15:21:12Z</time>
      </trkpt>
      <trkpt lat="46.8855" lon="5.38315">
        <ele>212.108032</ele>
        <time>2012-03-23T15:21:18Z</time>
      </trkpt>
      <trkpt lat="46.88609" lon="5.38332">
        <ele>213.069336</ele>
        <time>2012-03-23T15:21:28Z</time>
      </trkpt>
      <trkpt lat="46.88615" lon="5.38332">
        <ele>213.550049</ele>
        <time>2012-03-23T15:21:29Z</time>
      </trkpt>
      <trkpt lat="46.88764" lon="5.38344">
        <ele>212.588623</ele>
        <time>2012-03-23T15:21:51Z</time>
      </trkpt>
      <trkpt lat="46.88862" lon="5.38327">
        <ele>214.51123</ele>
        <time>2012-03-23T15:22:07Z</time>
      </trkpt>
      <trkpt lat="46.88965" lon="5.38306">
        <ele>214.991943</ele>
        <time>2012-03-23T15:22:24Z</time>
      </trkpt>
      <trkpt lat="46.89001" lon="5.38313">
        <ele>214.991943</ele>
        <time>2012-03-23T15:22:30Z</time>
      </trkpt>
      <trkpt lat="46.89033" lon="5.38321">
        <ele>215.472656</ele>
        <time>2012-03-23T15:22:36Z</time>
      </trkpt>
      <trkpt lat="46.89059" lon="5.38333">
        <ele>215.472656</ele>
        <time>2012-03-23T15:22:41Z</time>
      </trkpt>
      <trkpt lat="46.89116" lon="5.38341">
        <ele>214.991943</ele>
        <time>2012-03-23T15:22:51Z</time>
      </trkpt>
      <trkpt lat="46.89153" lon="5.38324">
        <ele>215.472656</ele>
        <time>2012-03-23T15:22:57Z</time>
      </trkpt>
      <trkpt lat="46.89282" lon="5.38147">
        <ele>214.991943</ele>
        <time>2012-03-23T15:23:27Z</time>
      </trkpt>
      <trkpt lat="46.89325" lon="5.38101">
        <ele>214.991943</ele>
        <time>2012-03-23T15:23:36Z</time>
      </trkpt>
      <trkpt lat="46.89361" lon="5.3811">
        <ele>214.991943</ele>
        <time>2012-03-23T15:23:44Z</time>
      </trkpt>
      <trkpt lat="46.89411" lon="5.3825">
        <ele>214.51123</ele>
        <time>2012-03-23T15:24:04Z</time>
      </trkpt>
      <trkpt lat="46.8944" lon="5.38335">
        <ele>215.472656</ele>
        <time>2012-03-23T15:24:15Z</time>
      </trkpt>
      <trkpt lat="46.89475" lon="5.38351">
        <ele>215.472656</ele>
        <time>2012-03-23T15:24:22Z</time>
      </trkpt>
      <trkpt lat="46.8966" lon="5.38275">
        <ele>214.991943</ele>
        <time>2012-03-23T15:24:54Z</time>
      </trkpt>
      <trkpt lat="46.89689" lon="5.38264">
        <ele>214.51123</ele>
        <time>2012-03-23T15:24:59Z</time>
      </trkpt>
      <trkpt lat="46.89724" lon="5.38274">
        <ele>215.953247</ele>
        <time>2012-03-23T15:25:05Z</time>
      </trkpt>
      <trkpt lat="46.89871" lon="5.38406">
        <ele>214.51123</ele>
        <time>2012-03-23T15:25:33Z</time>
      </trkpt>
      <trkpt lat="46.90014" lon="5.38535">
        <ele>214.51123</ele>
        <time>2012-03-23T15:26:01Z</time>
      </trkpt>
      <trkpt lat="46.90152" lon="5.3859">
        <ele>213.550049</ele>
        <time>2012-03-23T15:26:24Z</time>
      </trkpt>
      <trkpt lat="46.90173" lon="5.38608">
        <ele>213.550049</ele>
        <time>2012-03-23T15:26:28Z</time>
      </trkpt>
      <trkpt lat="46.90258" lon="5.38746">
        <ele>214.51123</ele>
        <time>2012-03-23T15:26:49Z</time>
      </trkpt>
      <trkpt lat="46.90294" lon="5.38803">
        <ele>215.472656</ele>
        <time>2012-03-23T15:26:58Z</time>
      </trkpt>
      <trkpt lat="46.90314" lon="5.38821">
        <ele>214.51123</ele>
        <time>2012-03-23T15:27:02Z</time>
      </trkpt>
      <trkpt lat="46.90418" lon="5.38886">
        <ele>215.953247</ele>
        <time>2012-03-23T15:27:21Z</time>
      </trkpt>
      <trkpt lat="46.90499" lon="5.38927">
        <ele>215.953247</ele>
        <time>2012-03-23T15:27:35Z</time>
      </trkpt>
      <trkpt lat="46.9059" lon="5.38959">
        <ele>215.472656</ele>
        <time>2012-03-23T15:27:50Z</time>
      </trkpt>
      <trkpt lat="46.90722" lon="5.38993">
        <ele>215.953247</ele>
        <time>2012-03-23T15:28:11Z</time>
      </trkpt>
      <trkpt lat="46.90749" lon="5.3902">
        <ele>214.991943</ele>
        <time>2012-03-23T15:28:17Z</time>
      </trkpt>
      <trkpt lat="46.90754" lon="5.39042">
        <ele>214.51123</ele>
        <time>2012-03-23T15:28:20Z</time>
      </trkpt>
      <trkpt lat="46.90756" lon="5.3912">
        <ele>214.03064</ele>
        <time>2012-03-23T15:28:30Z</time>
      </trkpt>
      <trkpt lat="46.90764" lon="5.3917">
        <ele>214.03064</ele>
        <time>2012-03-23T15:28:42Z</time>
      </trkpt>
      <trkpt lat="46.90764" lon="5.39174">
        <ele>213.550049</ele>
        <time>2012-03-23T15:28:56Z</time>
      </trkpt>
      <trkpt lat="46.90764" lon="5.39173">
        <ele>213.550049</ele>
        <time>2012-03-23T15:29:36Z</time>
      </trkpt>
      <trkpt lat="46.90765" lon="5.3917">
        <ele>213.550049</ele>
        <time>2012-03-23T15:30:15Z</time>
      </trkpt>
      <trkpt lat="46.90765" lon="5.39169">
        <ele>213.550049</ele>
        <time>2012-03-23T15:30:41Z</time>
      </trkpt>
      <trkpt lat="46.90765" lon="5.39169">
        <ele>213.069336</ele>
        <time>2012-03-23T15:31:37Z</time>
      </trkpt>
      <trkpt lat="46.90764" lon="5.39172">
        <ele>213.069336</ele>
        <time>2012-03-23T15:32:20Z</time>
      </trkpt>
      <trkpt lat="46.90765" lon="5.39171">
        <ele>213.069336</ele>
        <time>2012-03-23T15:32:42Z</time>
      </trkpt>
      <trkpt lat="46.90764" lon="5.39172">
        <ele>212.588623</ele>
        <time>2012-03-23T15:33:51Z</time>
      </trkpt>
      <trkpt lat="46.90766" lon="5.39172">
        <ele>212.588623</ele>
        <time>2012-03-23T15:34:34Z</time>
      </trkpt>
      <trkpt lat="46.90764" lon="5.39174">
        <ele>212.588623</ele>
        <time>2012-03-23T15:34:37Z</time>
      </trkpt>
      <trkpt lat="46.90762" lon="5.39178">
        <ele>212.588623</ele>
        <time>2012-03-23T15:34:40Z</time>
      </trkpt>
      <trkpt lat="46.90757" lon="5.39224">
        <ele>213.550049</ele>
        <time>2012-03-23T15:34:55Z</time>
      </trkpt>
      <trkpt lat="46.90759" lon="5.39323">
        <ele>214.03064</ele>
        <time>2012-03-23T15:35:11Z</time>
      </trkpt>
      <trkpt lat="46.9076" lon="5.39464">
        <ele>213.069336</ele>
        <time>2012-03-23T15:35:30Z</time>
      </trkpt>
      <trkpt lat="46.90764" lon="5.39673">
        <ele>212.588623</ele>
        <time>2012-03-23T15:35:54Z</time>
      </trkpt>
      <trkpt lat="46.90786" lon="5.39862">
        <ele>213.069336</ele>
        <time>2012-03-23T15:36:16Z</time>
      </trkpt>
      <trkpt lat="46.90801" lon="5.40082">
        <ele>212.108032</ele>
        <time>2012-03-23T15:36:40Z</time>
      </trkpt>
      <trkpt lat="46.90827" lon="5.40192">
        <ele>208.743408</ele>
        <time>2012-03-23T15:36:50Z</time>
      </trkpt>
      <trkpt lat="46.90843" lon="5.40253">
        <ele>206.820679</ele>
        <time>2012-03-23T15:36:55Z</time>
      </trkpt>
      <trkpt lat="46.9086" lon="5.4032">
        <ele>203.93689</ele>
        <time>2012-03-23T15:37:00Z</time>
      </trkpt>
      <trkpt lat="46.90869" lon="5.4036">
        <ele>202.975464</ele>
        <time>2012-03-23T15:37:03Z</time>
      </trkpt>
      <trkpt lat="46.9086" lon="5.40433">
        <ele>202.014282</ele>
        <time>2012-03-23T15:37:09Z</time>
      </trkpt>
      <trkpt lat="46.90812" lon="5.40581">
        <ele>204.41748</ele>
        <time>2012-03-23T15:37:26Z</time>
      </trkpt>
      <trkpt lat="46.90789" lon="5.40654">
        <ele>207.782104</ele>
        <time>2012-03-23T15:37:36Z</time>
      </trkpt>
      <trkpt lat="46.9077" lon="5.4075">
        <ele>210.666016</ele>
        <time>2012-03-23T15:37:49Z</time>
      </trkpt>
      <trkpt lat="46.9079" lon="5.40821">
        <ele>211.627441</ele>
        <time>2012-03-23T15:37:59Z</time>
      </trkpt>
      <trkpt lat="46.90809" lon="5.40841">
        <ele>211.146729</ele>
        <time>2012-03-23T15:38:03Z</time>
      </trkpt>
      <trkpt lat="46.90822" lon="5.4086">
        <ele>212.108032</ele>
        <time>2012-03-23T15:38:06Z</time>
      </trkpt>
      <trkpt lat="46.90839" lon="5.409">
        <ele>214.03064</ele>
        <time>2012-03-23T15:38:12Z</time>
      </trkpt>
      <trkpt lat="46.90906" lon="5.40969">
        <ele>215.472656</ele>
        <time>2012-03-23T15:38:27Z</time>
      </trkpt>
      <trkpt lat="46.90996" lon="5.41018">
        <ele>215.953247</ele>
        <time>2012-03-23T15:38:44Z</time>
      </trkpt>
      <trkpt lat="46.91054" lon="5.41055">
        <ele>215.953247</ele>
        <time>2012-03-23T15:38:55Z</time>
      </trkpt>
      <trkpt lat="46.91072" lon="5.41097">
        <ele>215.472656</ele>
        <time>2012-03-23T15:39:01Z</time>
      </trkpt>
      <trkpt lat="46.91102" lon="5.4129">
        <ele>215.953247</ele>
        <time>2012-03-23T15:39:23Z</time>
      </trkpt>
      <trkpt lat="46.91136" lon="5.41504">
        <ele>213.069336</ele>
        <time>2012-03-23T15:39:44Z</time>
      </trkpt>
      <trkpt lat="46.91134" lon="5.4167">
        <ele>211.627441</ele>
        <time>2012-03-23T15:39:58Z</time>
      </trkpt>
      <trkpt lat="46.91117" lon="5.41781">
        <ele>214.51123</ele>
        <time>2012-03-23T15:40:11Z</time>
      </trkpt>
      <trkpt lat="46.91103" lon="5.41834">
        <ele>213.550049</ele>
        <time>2012-03-23T15:40:23Z</time>
      </trkpt>
      <trkpt lat="46.91106" lon="5.41856">
        <ele>213.069336</ele>
        <time>2012-03-23T15:40:27Z</time>
      </trkpt>
      <trkpt lat="46.91103" lon="5.41966">
        <ele>209.704834</ele>
        <time>2012-03-23T15:40:39Z</time>
      </trkpt>
      <trkpt lat="46.91104" lon="5.42103">
        <ele>206.820679</ele>
        <time>2012-03-23T15:40:49Z</time>
      </trkpt>
      <trkpt lat="46.91144" lon="5.42224">
        <ele>208.262817</ele>
        <time>2012-03-23T15:41:02Z</time>
      </trkpt>
      <trkpt lat="46.91159" lon="5.42373">
        <ele>207.301392</ele>
        <time>2012-03-23T15:41:17Z</time>
      </trkpt>
      <trkpt lat="46.91172" lon="5.42486">
        <ele>210.666016</ele>
        <time>2012-03-23T15:41:30Z</time>
      </trkpt>
      <trkpt lat="46.91173" lon="5.42494">
        <ele>210.666016</ele>
        <time>2012-03-23T15:41:31Z</time>
      </trkpt>
      <trkpt lat="46.91203" lon="5.42679">
        <ele>207.782104</ele>
        <time>2012-03-23T15:41:51Z</time>
      </trkpt>
      <trkpt lat="46.91246" lon="5.42768">
        <ele>208.743408</ele>
        <time>2012-03-23T15:42:02Z</time>
      </trkpt>
      <trkpt lat="46.91307" lon="5.42825">
        <ele>210.666016</ele>
        <time>2012-03-23T15:42:14Z</time>
      </trkpt>
      <trkpt lat="46.91328" lon="5.42868">
        <ele>212.108032</ele>
        <time>2012-03-23T15:42:20Z</time>
      </trkpt>
      <trkpt lat="46.91353" lon="5.43006">
        <ele>215.472656</ele>
        <time>2012-03-23T15:42:37Z</time>
      </trkpt>
      <trkpt lat="46.91384" lon="5.43162">
        <ele>218.356567</ele>
        <time>2012-03-23T15:42:56Z</time>
      </trkpt>
      <trkpt lat="46.91391" lon="5.43315">
        <ele>218.356567</ele>
        <time>2012-03-23T15:43:13Z</time>
      </trkpt>
      <trkpt lat="46.91367" lon="5.43544">
        <ele>218.356567</ele>
        <time>2012-03-23T15:43:37Z</time>
      </trkpt>
      <trkpt lat="46.91358" lon="5.43694">
        <ele>217.875977</ele>
        <time>2012-03-23T15:43:55Z</time>
      </trkpt>
      <trkpt lat="46.91349" lon="5.43852">
        <ele>216.914673</ele>
        <time>2012-03-23T15:44:17Z</time>
      </trkpt>
      <trkpt lat="46.91367" lon="5.43971">
        <ele>214.991943</ele>
        <time>2012-03-23T15:44:31Z</time>
      </trkpt>
      <trkpt lat="46.91456" lon="5.44147">
        <ele>211.146729</ele>
        <time>2012-03-23T15:44:51Z</time>
      </trkpt>
      <trkpt lat="46.91552" lon="5.44341">
        <ele>209.704834</ele>
        <time>2012-03-23T15:45:13Z</time>
      </trkpt>
      <trkpt lat="46.91569" lon="5.44458">
        <ele>209.224121</ele>
        <time>2012-03-23T15:45:24Z</time>
      </trkpt>
      <trkpt lat="46.91554" lon="5.4459">
        <ele>212.108032</ele>
        <time>2012-03-23T15:45:38Z</time>
      </trkpt>
      <trkpt lat="46.91566" lon="5.44657">
        <ele>213.550049</ele>
        <time>2012-03-23T15:45:46Z</time>
      </trkpt>
      <trkpt lat="46.91635" lon="5.448">
        <ele>216.43396</ele>
        <time>2012-03-23T15:46:06Z</time>
      </trkpt>
      <trkpt lat="46.91667" lon="5.44961">
        <ele>213.550049</ele>
        <time>2012-03-23T15:46:23Z</time>
      </trkpt>
      <trkpt lat="46.91674" lon="5.44999">
        <ele>211.627441</ele>
        <time>2012-03-23T15:46:26Z</time>
      </trkpt>
      <trkpt lat="46.91715" lon="5.45051">
        <ele>210.185425</ele>
        <time>2012-03-23T15:46:32Z</time>
      </trkpt>
      <trkpt lat="46.91742" lon="5.45063">
        <ele>209.224121</ele>
        <time>2012-03-23T15:46:35Z</time>
      </trkpt>
      <trkpt lat="46.91781" lon="5.45104">
        <ele>209.224121</ele>
        <time>2012-03-23T15:46:41Z</time>
      </trkpt>
      <trkpt lat="46.91824" lon="5.45207">
        <ele>210.666016</ele>
        <time>2012-03-23T15:46:56Z</time>
      </trkpt>
      <trkpt lat="46.91832" lon="5.45222">
        <ele>211.627441</ele>
        <time>2012-03-23T15:47:01Z</time>
      </trkpt>
      <trkpt lat="46.91847" lon="5.4521">
        <ele>213.069336</ele>
        <time>2012-03-23T15:47:07Z</time>
      </trkpt>
      <trkpt lat="46.91911" lon="5.45147">
        <ele>214.991943</ele>
        <time>2012-03-23T15:47:24Z</time>
      </trkpt>
      <trkpt lat="46.91988" lon="5.45087">
        <ele>214.51123</ele>
        <time>2012-03-23T15:47:42Z</time>
      </trkpt>
      <trkpt lat="46.92076" lon="5.45004">
        <ele>215.953247</ele>
        <time>2012-03-23T15:48:02Z</time>
      </trkpt>
      <trkpt lat="46.92187" lon="5.44928">
        <ele>216.43396</ele>
        <time>2012-03-23T15:48:24Z</time>
      </trkpt>
      <trkpt lat="46.92276" lon="5.44869">
        <ele>217.395386</ele>
        <time>2012-03-23T15:48:41Z</time>
      </trkpt>
      <trkpt lat="46.92353" lon="5.44781">
        <ele>216.43396</ele>
        <time>2012-03-23T15:48:58Z</time>
      </trkpt>
      <trkpt lat="46.92472" lon="5.44596">
        <ele>215.953247</ele>
        <time>2012-03-23T15:49:26Z</time>
      </trkpt>
      <trkpt lat="46.92579" lon="5.44396">
        <ele>214.991943</ele>
        <time>2012-03-23T15:49:53Z</time>
      </trkpt>
      <trkpt lat="46.92665" lon="5.44166">
        <ele>216.43396</ele>
        <time>2012-03-23T15:50:21Z</time>
      </trkpt>
      <trkpt lat="46.92694" lon="5.4409">
        <ele>215.953247</ele>
        <time>2012-03-23T15:50:30Z</time>
      </trkpt>
      <trkpt lat="46.9273" lon="5.44066">
        <ele>215.472656</ele>
        <time>2012-03-23T15:50:36Z</time>
      </trkpt>
      <trkpt lat="46.92908" lon="5.44068">
        <ele>215.472656</ele>
        <time>2012-03-23T15:51:04Z</time>
      </trkpt>
      <trkpt lat="46.93001" lon="5.44057">
        <ele>214.991943</ele>
        <time>2012-03-23T15:51:19Z</time>
      </trkpt>
      <trkpt lat="46.93145" lon="5.43994">
        <ele>215.953247</ele>
        <time>2012-03-23T15:51:43Z</time>
      </trkpt>
      <trkpt lat="46.9323" lon="5.43968">
        <ele>214.991943</ele>
        <time>2012-03-23T15:51:57Z</time>
      </trkpt>
      <trkpt lat="46.93253" lon="5.43957">
        <ele>214.991943</ele>
        <time>2012-03-23T15:52:01Z</time>
      </trkpt>
      <trkpt lat="46.93342" lon="5.43894">
        <ele>215.472656</ele>
        <time>2012-03-23T15:52:17Z</time>
      </trkpt>
      <trkpt lat="46.93515" lon="5.43822">
        <ele>214.51123</ele>
        <time>2012-03-23T15:52:46Z</time>
      </trkpt>
      <trkpt lat="46.93616" lon="5.43815">
        <ele>214.51123</ele>
        <time>2012-03-23T15:53:02Z</time>
      </trkpt>
      <trkpt lat="46.93806" lon="5.43828">
        <ele>214.03064</ele>
        <time>2012-03-23T15:53:33Z</time>
      </trkpt>
      <trkpt lat="46.93968" lon="5.4381">
        <ele>213.550049</ele>
        <time>2012-03-23T15:53:58Z</time>
      </trkpt>
      <trkpt lat="46.94051" lon="5.43782">
        <ele>210.185425</ele>
        <time>2012-03-23T15:54:10Z</time>
      </trkpt>
      <trkpt lat="46.94142" lon="5.43727">
        <ele>207.301392</ele>
        <time>2012-03-23T15:54:23Z</time>
      </trkpt>
      <trkpt lat="46.94156" lon="5.43718">
        <ele>206.820679</ele>
        <time>2012-03-23T15:54:25Z</time>
      </trkpt>
      <trkpt lat="46.9425" lon="5.43701">
        <ele>203.456177</ele>
        <time>2012-03-23T15:54:37Z</time>
      </trkpt>
      <trkpt lat="46.94314" lon="5.43655">
        <ele>204.898071</ele>
        <time>2012-03-23T15:54:48Z</time>
      </trkpt>
      <trkpt lat="46.94393" lon="5.43581">
        <ele>207.782104</ele>
        <time>2012-03-23T15:55:05Z</time>
      </trkpt>
      <trkpt lat="46.9449" lon="5.43518">
        <ele>211.146729</ele>
        <time>2012-03-23T15:55:24Z</time>
      </trkpt>
      <trkpt lat="46.94603" lon="5.43477">
        <ele>210.185425</ele>
        <time>2012-03-23T15:55:43Z</time>
      </trkpt>
      <trkpt lat="46.94727" lon="5.43435">
        <ele>210.185425</ele>
        <time>2012-03-23T15:56:03Z</time>
      </trkpt>
      <trkpt lat="46.9485" lon="5.4338">
        <ele>210.666016</ele>
        <time>2012-03-23T15:56:22Z</time>
      </trkpt>
      <trkpt lat="46.94933" lon="5.43296">
        <ele>207.301392</ele>
        <time>2012-03-23T15:56:36Z</time>
      </trkpt>
      <trkpt lat="46.94947" lon="5.43282">
        <ele>205.859497</ele>
        <time>2012-03-23T15:56:38Z</time>
      </trkpt>
      <trkpt lat="46.94981" lon="5.43265">
        <ele>204.41748</ele>
        <time>2012-03-23T15:56:42Z</time>
      </trkpt>
      <trkpt lat="46.94999" lon="5.4326">
        <ele>203.456177</ele>
        <time>2012-03-23T15:56:44Z</time>
      </trkpt>
      <trkpt lat="46.95025" lon="5.43257">
        <ele>202.975464</ele>
        <time>2012-03-23T15:56:47Z</time>
      </trkpt>
      <trkpt lat="46.95099" lon="5.43271">
        <ele>203.456177</ele>
        <time>2012-03-23T15:56:58Z</time>
      </trkpt>
      <trkpt lat="46.95156" lon="5.4326">
        <ele>206.820679</ele>
        <time>2012-03-23T15:57:09Z</time>
      </trkpt>
      <trkpt lat="46.95167" lon="5.43257">
        <ele>207.782104</ele>
        <time>2012-03-23T15:57:11Z</time>
      </trkpt>
      <trkpt lat="46.95204" lon="5.43241">
        <ele>210.666016</ele>
        <time>2012-03-23T15:57:19Z</time>
      </trkpt>
      <trkpt lat="46.95209" lon="5.43238">
        <ele>211.146729</ele>
        <time>2012-03-23T15:57:20Z</time>
      </trkpt>
      <trkpt lat="46.95289" lon="5.43212">
        <ele>212.588623</ele>
        <time>2012-03-23T15:57:36Z</time>
      </trkpt>
      <trkpt lat="46.95376" lon="5.43155">
        <ele>211.627441</ele>
        <time>2012-03-23T15:57:53Z</time>
      </trkpt>
      <trkpt lat="46.9543" lon="5.43064">
        <ele>211.146729</ele>
        <time>2012-03-23T15:58:08Z</time>
      </trkpt>
      <trkpt lat="46.95541" lon="5.42935">
        <ele>210.666016</ele>
        <time>2012-03-23T15:58:31Z</time>
      </trkpt>
      <trkpt lat="46.95547" lon="5.42932">
        <ele>210.666016</ele>
        <time>2012-03-23T15:58:32Z</time>
      </trkpt>
      <trkpt lat="46.95587" lon="5.42935">
        <ele>210.185425</ele>
        <time>2012-03-23T15:58:38Z</time>
      </trkpt>
      <trkpt lat="46.95653" lon="5.42975">
        <ele>209.704834</ele>
        <time>2012-03-23T15:58:49Z</time>
      </trkpt>
      <trkpt lat="46.95669" lon="5.4298">
        <ele>210.185425</ele>
        <time>2012-03-23T15:58:52Z</time>
      </trkpt>
      <trkpt lat="46.95688" lon="5.42974">
        <ele>209.224121</ele>
        <time>2012-03-23T15:58:56Z</time>
      </trkpt>
      <trkpt lat="46.95768" lon="5.429">
        <ele>208.262817</ele>
        <time>2012-03-23T15:59:14Z</time>
      </trkpt>
      <trkpt lat="46.95854" lon="5.42808">
        <ele>204.898071</ele>
        <time>2012-03-23T15:59:29Z</time>
      </trkpt>
      <trkpt lat="46.95968" lon="5.42658">
        <ele>201.533569</ele>
        <time>2012-03-23T15:59:49Z</time>
      </trkpt>
      <trkpt lat="46.95974" lon="5.4265">
        <ele>201.052856</ele>
        <time>2012-03-23T15:59:50Z</time>
      </trkpt>
      <trkpt lat="46.9603" lon="5.42588">
        <ele>198.168945</ele>
        <time>2012-03-23T15:59:58Z</time>
      </trkpt>
      <trkpt lat="46.96054" lon="5.42566">
        <ele>196.726929</ele>
        <time>2012-03-23T16:00:01Z</time>
      </trkpt>
      <trkpt lat="46.96161" lon="5.42486">
        <ele>195.284912</ele>
        <time>2012-03-23T16:00:15Z</time>
      </trkpt>
      <trkpt lat="46.96182" lon="5.4247">
        <ele>194.804321</ele>
        <time>2012-03-23T16:00:18Z</time>
      </trkpt>
      <trkpt lat="46.96205" lon="5.42439">
        <ele>194.32373</ele>
        <time>2012-03-23T16:00:22Z</time>
      </trkpt>
      <trkpt lat="46.96286" lon="5.42332">
        <ele>192.881714</ele>
        <time>2012-03-23T16:00:36Z</time>
      </trkpt>
      <trkpt lat="46.96384" lon="5.4221">
        <ele>191.439575</ele>
        <time>2012-03-23T16:00:53Z</time>
      </trkpt>
      <trkpt lat="46.96416" lon="5.42085">
        <ele>189.516968</ele>
        <time>2012-03-23T16:01:05Z</time>
      </trkpt>
      <trkpt lat="46.96454" lon="5.4204">
        <ele>189.036377</ele>
        <time>2012-03-23T16:01:12Z</time>
      </trkpt>
      <trkpt lat="46.96469" lon="5.42038">
        <ele>188.555786</ele>
        <time>2012-03-23T16:01:14Z</time>
      </trkpt>
      <trkpt lat="46.96575" lon="5.42082">
        <ele>189.036377</ele>
        <time>2012-03-23T16:01:30Z</time>
      </trkpt>
      <trkpt lat="46.96603" lon="5.42099">
        <ele>189.516968</ele>
        <time>2012-03-23T16:01:35Z</time>
      </trkpt>
      <trkpt lat="46.96628" lon="5.42085">
        <ele>189.997681</ele>
        <time>2012-03-23T16:01:44Z</time>
      </trkpt>
      <trkpt lat="46.9664" lon="5.41956">
        <ele>189.997681</ele>
        <time>2012-03-23T16:02:00Z</time>
      </trkpt>
      <trkpt lat="46.96661" lon="5.4175">
        <ele>187.59436</ele>
        <time>2012-03-23T16:02:21Z</time>
      </trkpt>
      <trkpt lat="46.96674" lon="5.41621">
        <ele>187.59436</ele>
        <time>2012-03-23T16:02:34Z</time>
      </trkpt>
      <trkpt lat="46.96674" lon="5.41577">
        <ele>187.59436</ele>
        <time>2012-03-23T16:02:39Z</time>
      </trkpt>
      <trkpt lat="46.96681" lon="5.41552">
        <ele>187.59436</ele>
        <time>2012-03-23T16:02:42Z</time>
      </trkpt>
      <trkpt lat="46.96681" lon="5.41526">
        <ele>187.59436</ele>
        <time>2012-03-23T16:02:45Z</time>
      </trkpt>
      <trkpt lat="46.96706" lon="5.4141">
        <ele>187.59436</ele>
        <time>2012-03-23T16:02:58Z</time>
      </trkpt>
      <trkpt lat="46.96748" lon="5.4123">
        <ele>186.152466</ele>
        <time>2012-03-23T16:03:18Z</time>
      </trkpt>
      <trkpt lat="46.96753" lon="5.41081">
        <ele>186.152466</ele>
        <time>2012-03-23T16:03:34Z</time>
      </trkpt>
      <trkpt lat="46.96744" lon="5.40997">
        <ele>186.152466</ele>
        <time>2012-03-23T16:03:43Z</time>
      </trkpt>
      <trkpt lat="46.96753" lon="5.40934">
        <ele>186.633179</ele>
        <time>2012-03-23T16:03:50Z</time>
      </trkpt>
      <trkpt lat="46.96783" lon="5.40799">
        <ele>187.11377</ele>
        <time>2012-03-23T16:04:06Z</time>
      </trkpt>
      <trkpt lat="46.96803" lon="5.40703">
        <ele>188.075073</ele>
        <time>2012-03-23T16:04:17Z</time>
      </trkpt>
      <trkpt lat="46.96835" lon="5.40599">
        <ele>186.633179</ele>
        <time>2012-03-23T16:04:30Z</time>
      </trkpt>
      <trkpt lat="46.96858" lon="5.40581">
        <ele>186.152466</ele>
        <time>2012-03-23T16:04:35Z</time>
      </trkpt>
      <trkpt lat="46.96888" lon="5.40583">
        <ele>186.152466</ele>
        <time>2012-03-23T16:04:40Z</time>
      </trkpt>
      <trkpt lat="46.96913" lon="5.40599">
        <ele>186.152466</ele>
        <time>2012-03-23T16:04:45Z</time>
      </trkpt>
      <trkpt lat="46.96925" lon="5.40616">
        <ele>186.633179</ele>
        <time>2012-03-23T16:04:48Z</time>
      </trkpt>
      <trkpt lat="46.9694" lon="5.40628">
        <ele>185.671753</ele>
        <time>2012-03-23T16:04:51Z</time>
      </trkpt>
      <trkpt lat="46.96967" lon="5.40639">
        <ele>185.671753</ele>
        <time>2012-03-23T16:04:56Z</time>
      </trkpt>
      <trkpt lat="46.97089" lon="5.40639">
        <ele>186.633179</ele>
        <time>2012-03-23T16:05:16Z</time>
      </trkpt>
      <trkpt lat="46.97225" lon="5.40651">
        <ele>185.671753</ele>
        <time>2012-03-23T16:05:37Z</time>
      </trkpt>
      <trkpt lat="46.97404" lon="5.40686">
        <ele>186.152466</ele>
        <time>2012-03-23T16:06:05Z</time>
      </trkpt>
      <trkpt lat="46.97559" lon="5.40715">
        <ele>186.152466</ele>
        <time>2012-03-23T16:06:30Z</time>
      </trkpt>
      <trkpt lat="46.97731" lon="5.40748">
        <ele>189.036377</ele>
        <time>2012-03-23T16:06:59Z</time>
      </trkpt>
      <trkpt lat="46.97816" lon="5.40763">
        <ele>188.555786</ele>
        <time>2012-03-23T16:07:13Z</time>
      </trkpt>
      <trkpt lat="46.97827" lon="5.40765">
        <ele>188.555786</ele>
        <time>2012-03-23T16:07:15Z</time>
      </trkpt>
      <trkpt lat="46.97851" lon="5.40759">
        <ele>187.59436</ele>
        <time>2012-03-23T16:07:19Z</time>
      </trkpt>
      <trkpt lat="46.9796" lon="5.4072">
        <ele>187.11377</ele>
        <time>2012-03-23T16:07:37Z</time>
      </trkpt>
      <trkpt lat="46.98072" lon="5.40754">
        <ele>186.633179</ele>
        <time>2012-03-23T16:07:55Z</time>
      </trkpt>
      <trkpt lat="46.98227" lon="5.40805">
        <ele>186.633179</ele>
        <time>2012-03-23T16:08:20Z</time>
      </trkpt>
      <trkpt lat="46.98297" lon="5.40826">
        <ele>187.59436</ele>
        <time>2012-03-23T16:08:32Z</time>
      </trkpt>
      <trkpt lat="46.9833" lon="5.40805">
        <ele>187.11377</ele>
        <time>2012-03-23T16:08:38Z</time>
      </trkpt>
      <trkpt lat="46.98437" lon="5.40644">
        <ele>186.152466</ele>
        <time>2012-03-23T16:09:02Z</time>
      </trkpt>
      <trkpt lat="46.98472" lon="5.40614">
        <ele>186.152466</ele>
        <time>2012-03-23T16:09:08Z</time>
      </trkpt>
      <trkpt lat="46.98624" lon="5.40577">
        <ele>187.59436</ele>
        <time>2012-03-23T16:09:32Z</time>
      </trkpt>
      <trkpt lat="46.98799" lon="5.4056">
        <ele>187.11377</ele>
        <time>2012-03-23T16:09:59Z</time>
      </trkpt>
      <trkpt lat="46.98903" lon="5.40566">
        <ele>187.59436</ele>
        <time>2012-03-23T16:10:15Z</time>
      </trkpt>
      <trkpt lat="46.98971" lon="5.40612">
        <ele>188.075073</ele>
        <time>2012-03-23T16:10:28Z</time>
      </trkpt>
      <trkpt lat="46.99006" lon="5.40631">
        <ele>187.11377</ele>
        <time>2012-03-23T16:10:34Z</time>
      </trkpt>
      <trkpt lat="46.99144" lon="5.40688">
        <ele>187.59436</ele>
        <time>2012-03-23T16:10:56Z</time>
      </trkpt>
      <trkpt lat="46.99176" lon="5.40696">
        <ele>187.59436</ele>
        <time>2012-03-23T16:11:01Z</time>
      </trkpt>
      <trkpt lat="46.99281" lon="5.40667">
        <ele>187.59436</ele>
        <time>2012-03-23T16:11:17Z</time>
      </trkpt>
      <trkpt lat="46.99389" lon="5.40655">
        <ele>188.075073</ele>
        <time>2012-03-23T16:11:33Z</time>
      </trkpt>
      <trkpt lat="46.99395" lon="5.40653">
        <ele>188.075073</ele>
        <time>2012-03-23T16:11:34Z</time>
      </trkpt>
      <trkpt lat="46.9947" lon="5.40613">
        <ele>188.075073</ele>
        <time>2012-03-23T16:11:48Z</time>
      </trkpt>
      <trkpt lat="46.99566" lon="5.40555">
        <ele>188.555786</ele>
        <time>2012-03-23T16:12:05Z</time>
      </trkpt>
      <trkpt lat="46.99654" lon="5.40458">
        <ele>188.555786</ele>
        <time>2012-03-23T16:12:22Z</time>
      </trkpt>
      <trkpt lat="46.99678" lon="5.40412">
        <ele>188.555786</ele>
        <time>2012-03-23T16:12:28Z</time>
      </trkpt>
      <trkpt lat="46.99751" lon="5.40324">
        <ele>188.555786</ele>
        <time>2012-03-23T16:12:44Z</time>
      </trkpt>
      <trkpt lat="46.99834" lon="5.40292">
        <ele>188.555786</ele>
        <time>2012-03-23T16:12:58Z</time>
      </trkpt>
      <trkpt lat="46.99906" lon="5.40233">
        <ele>188.075073</ele>
        <time>2012-03-23T16:13:11Z</time>
      </trkpt>
      <trkpt lat="47.00002" lon="5.40165">
        <ele>188.555786</ele>
        <time>2012-03-23T16:13:27Z</time>
      </trkpt>
      <trkpt lat="47.0002" lon="5.40155">
        <ele>188.555786</ele>
        <time>2012-03-23T16:13:30Z</time>
      </trkpt>
      <trkpt lat="47.00048" lon="5.40094">
        <ele>188.555786</ele>
        <time>2012-03-23T16:13:38Z</time>
      </trkpt>
      <trkpt lat="47.0005" lon="5.40074">
        <ele>188.555786</ele>
        <time>2012-03-23T16:13:40Z</time>
      </trkpt>
      <trkpt lat="47.00044" lon="5.40018">
        <ele>188.555786</ele>
        <time>2012-03-23T16:13:46Z</time>
      </trkpt>
      <trkpt lat="46.99986" lon="5.3989">
        <ele>188.075073</ele>
        <time>2012-03-23T16:14:02Z</time>
      </trkpt>
      <trkpt lat="46.9996" lon="5.39834">
        <ele>188.075073</ele>
        <time>2012-03-23T16:14:08Z</time>
      </trkpt>
      <trkpt lat="46.99948" lon="5.39749">
        <ele>187.59436</ele>
        <time>2012-03-23T16:14:16Z</time>
      </trkpt>
      <trkpt lat="46.99972" lon="5.39481">
        <ele>188.075073</ele>
        <time>2012-03-23T16:14:41Z</time>
      </trkpt>
      <trkpt lat="46.99988" lon="5.39252">
        <ele>187.59436</ele>
        <time>2012-03-23T16:15:03Z</time>
      </trkpt>
      <trkpt lat="47.00032" lon="5.39131">
        <ele>187.59436</ele>
        <time>2012-03-23T16:15:16Z</time>
      </trkpt>
      <trkpt lat="47.00043" lon="5.39024">
        <ele>187.11377</ele>
        <time>2012-03-23T16:15:27Z</time>
      </trkpt>
      <trkpt lat="47.00074" lon="5.3897">
        <ele>188.555786</ele>
        <time>2012-03-23T16:15:35Z</time>
      </trkpt>
      <trkpt lat="47.00105" lon="5.38968">
        <ele>189.997681</ele>
        <time>2012-03-23T16:15:41Z</time>
      </trkpt>
      <trkpt lat="47.00188" lon="5.38997">
        <ele>189.997681</ele>
        <time>2012-03-23T16:15:57Z</time>
      </trkpt>
      <trkpt lat="47.00194" lon="5.38998">
        <ele>189.997681</ele>
        <time>2012-03-23T16:15:58Z</time>
      </trkpt>
      <trkpt lat="47.00204" lon="5.39003">
        <ele>189.997681</ele>
        <time>2012-03-23T16:16:00Z</time>
      </trkpt>
      <trkpt lat="47.00251" lon="5.39014">
        <ele>189.997681</ele>
        <time>2012-03-23T16:16:09Z</time>
      </trkpt>
      <trkpt lat="47.00366" lon="5.39055">
        <ele>188.555786</ele>
        <time>2012-03-23T16:16:28Z</time>
      </trkpt>
      <trkpt lat="47.00493" lon="5.39098">
        <ele>187.59436</ele>
        <time>2012-03-23T16:16:49Z</time>
      </trkpt>
      <trkpt lat="47.0053" lon="5.39109">
        <ele>187.59436</ele>
        <time>2012-03-23T16:16:55Z</time>
      </trkpt>
      <trkpt lat="47.00571" lon="5.39099">
        <ele>188.075073</ele>
        <time>2012-03-23T16:17:02Z</time>
      </trkpt>
      <trkpt lat="47.00623" lon="5.39052">
        <ele>188.075073</ele>
        <time>2012-03-23T16:17:16Z</time>
      </trkpt>
      <trkpt lat="47.00687" lon="5.38996">
        <ele>187.59436</ele>
        <time>2012-03-23T16:17:33Z</time>
      </trkpt>
      <trkpt lat="47.00759" lon="5.38911">
        <ele>187.59436</ele>
        <time>2012-03-23T16:17:51Z</time>
      </trkpt>
      <trkpt lat="47.00803" lon="5.38802">
        <ele>187.11377</ele>
        <time>2012-03-23T16:18:06Z</time>
      </trkpt>
      <trkpt lat="47.00862" lon="5.38658">
        <ele>187.59436</ele>
        <time>2012-03-23T16:18:25Z</time>
      </trkpt>
      <trkpt lat="47.00871" lon="5.38647">
        <ele>187.11377</ele>
        <time>2012-03-23T16:18:27Z</time>
      </trkpt>
      <trkpt lat="47.0089" lon="5.38631">
        <ele>187.11377</ele>
        <time>2012-03-23T16:18:31Z</time>
      </trkpt>
      <trkpt lat="47.009" lon="5.38626">
        <ele>187.11377</ele>
        <time>2012-03-23T16:18:33Z</time>
      </trkpt>
      <trkpt lat="47.00933" lon="5.38618">
        <ele>187.59436</ele>
        <time>2012-03-23T16:18:41Z</time>
      </trkpt>
      <trkpt lat="47.00939" lon="5.38631">
        <ele>187.59436</ele>
        <time>2012-03-23T16:18:45Z</time>
      </trkpt>
      <trkpt lat="47.00934" lon="5.38697">
        <ele>188.555786</ele>
        <time>2012-03-23T16:19:00Z</time>
      </trkpt>
      <trkpt lat="47.00922" lon="5.38788">
        <ele>188.075073</ele>
        <time>2012-03-23T16:19:14Z</time>
      </trkpt>
      <trkpt lat="47.00924" lon="5.38817">
        <ele>188.075073</ele>
        <time>2012-03-23T16:19:18Z</time>
      </trkpt>
      <trkpt lat="47.00954" lon="5.3884">
        <ele>187.59436</ele>
        <time>2012-03-23T16:19:26Z</time>
      </trkpt>
      <trkpt lat="47.00984" lon="5.3883">
        <ele>187.59436</ele>
        <time>2012-03-23T16:19:32Z</time>
      </trkpt>
      <trkpt lat="47.01049" lon="5.38869">
        <ele>187.59436</ele>
        <time>2012-03-23T16:19:45Z</time>
      </trkpt>
      <trkpt lat="47.01058" lon="5.38878">
        <ele>187.59436</ele>
        <time>2012-03-23T16:19:47Z</time>
      </trkpt>
      <trkpt lat="47.01143" lon="5.38914">
        <ele>188.555786</ele>
        <time>2012-03-23T16:20:03Z</time>
      </trkpt>
      <trkpt lat="47.01267" lon="5.3898">
        <ele>189.516968</ele>
        <time>2012-03-23T16:20:25Z</time>
      </trkpt>
      <trkpt lat="47.01464" lon="5.39136">
        <ele>189.036377</ele>
        <time>2012-03-23T16:21:00Z</time>
      </trkpt>
      <trkpt lat="47.01639" lon="5.39286">
        <ele>189.036377</ele>
        <time>2012-03-23T16:21:32Z</time>
      </trkpt>
      <trkpt lat="47.01787" lon="5.39423">
        <ele>189.036377</ele>
        <time>2012-03-23T16:21:59Z</time>
      </trkpt>
      <trkpt lat="47.01988" lon="5.39605">
        <ele>189.516968</ele>
        <time>2012-03-23T16:22:36Z</time>
      </trkpt>
      <trkpt lat="47.02164" lon="5.39798">
        <ele>189.997681</ele>
        <time>2012-03-23T16:23:11Z</time>
      </trkpt>
      <trkpt lat="47.0228" lon="5.39912">
        <ele>189.997681</ele>
        <time>2012-03-23T16:23:33Z</time>
      </trkpt>
      <trkpt lat="47.02425" lon="5.40052">
        <ele>190.478394</ele>
        <time>2012-03-23T16:24:01Z</time>
      </trkpt>
      <trkpt lat="47.02575" lon="5.40187">
        <ele>190.478394</ele>
        <time>2012-03-23T16:24:29Z</time>
      </trkpt>
      <trkpt lat="47.02688" lon="5.40282">
        <ele>190.478394</ele>
        <time>2012-03-23T16:24:50Z</time>
      </trkpt>
      <trkpt lat="47.02837" lon="5.40383">
        <ele>189.516968</ele>
        <time>2012-03-23T16:25:16Z</time>
      </trkpt>
      <trkpt lat="47.03002" lon="5.40497">
        <ele>190.478394</ele>
        <time>2012-03-23T16:25:45Z</time>
      </trkpt>
      <trkpt lat="47.03094" lon="5.40591">
        <ele>189.997681</ele>
        <time>2012-03-23T16:26:03Z</time>
      </trkpt>
      <trkpt lat="47.03113" lon="5.40638">
        <ele>189.997681</ele>
        <time>2012-03-23T16:26:09Z</time>
      </trkpt>
      <trkpt lat="47.03109" lon="5.40703">
        <ele>189.997681</ele>
        <time>2012-03-23T16:26:17Z</time>
      </trkpt>
      <trkpt lat="47.03095" lon="5.40718">
        <ele>189.516968</ele>
        <time>2012-03-23T16:26:20Z</time>
      </trkpt>
      <trkpt lat="47.03058" lon="5.40743">
        <ele>190.478394</ele>
        <time>2012-03-23T16:26:27Z</time>
      </trkpt>
      <trkpt lat="47.03045" lon="5.40787">
        <ele>192.401123</ele>
        <time>2012-03-23T16:26:36Z</time>
      </trkpt>
      <trkpt lat="47.03047" lon="5.40791">
        <ele>192.401123</ele>
        <time>2012-03-23T16:26:37Z</time>
      </trkpt>
      <trkpt lat="47.03054" lon="5.40807">
        <ele>192.401123</ele>
        <time>2012-03-23T16:26:44Z</time>
      </trkpt>
      <trkpt lat="47.03066" lon="5.408">
        <ele>192.881714</ele>
        <time>2012-03-23T16:26:50Z</time>
      </trkpt>
      <trkpt lat="47.03097" lon="5.40751">
        <ele>193.843018</ele>
        <time>2012-03-23T16:27:01Z</time>
      </trkpt>
      <trkpt lat="47.03105" lon="5.40743">
        <ele>194.804321</ele>
        <time>2012-03-23T16:27:03Z</time>
      </trkpt>
      <trkpt lat="47.03162" lon="5.4072">
        <ele>196.246338</ele>
        <time>2012-03-23T16:27:16Z</time>
      </trkpt>
      <trkpt lat="47.03195" lon="5.40713">
        <ele>196.246338</ele>
        <time>2012-03-23T16:27:24Z</time>
      </trkpt>
      <trkpt lat="47.03208" lon="5.40714">
        <ele>195.284912</ele>
        <time>2012-03-23T16:27:27Z</time>
      </trkpt>
      <trkpt lat="47.03227" lon="5.40723">
        <ele>194.804321</ele>
        <time>2012-03-23T16:27:31Z</time>
      </trkpt>
      <trkpt lat="47.03281" lon="5.40794">
        <ele>191.920288</ele>
        <time>2012-03-23T16:27:42Z</time>
      </trkpt>
      <trkpt lat="47.03287" lon="5.40801">
        <ele>190.958984</ele>
        <time>2012-03-23T16:27:43Z</time>
      </trkpt>
      <trkpt lat="47.03311" lon="5.40818">
        <ele>190.958984</ele>
        <time>2012-03-23T16:27:47Z</time>
      </trkpt>
      <trkpt lat="47.03324" lon="5.40821">
        <ele>190.958984</ele>
        <time>2012-03-23T16:27:49Z</time>
      </trkpt>
      <trkpt lat="47.03354" lon="5.40815">
        <ele>189.997681</ele>
        <time>2012-03-23T16:27:54Z</time>
      </trkpt>
      <trkpt lat="47.03406" lon="5.40851">
        <ele>189.997681</ele>
        <time>2012-03-23T16:28:03Z</time>
      </trkpt>
      <trkpt lat="47.03467" lon="5.40948">
        <ele>189.997681</ele>
        <time>2012-03-23T16:28:17Z</time>
      </trkpt>
      <trkpt lat="47.03518" lon="5.41009">
        <ele>189.516968</ele>
        <time>2012-03-23T16:28:28Z</time>
      </trkpt>
      <trkpt lat="47.03544" lon="5.41022">
        <ele>189.516968</ele>
        <time>2012-03-23T16:28:33Z</time>
      </trkpt>
      <trkpt lat="47.03576" lon="5.41079">
        <ele>189.516968</ele>
        <time>2012-03-23T16:28:42Z</time>
      </trkpt>
      <trkpt lat="47.03601" lon="5.41137">
        <ele>189.516968</ele>
        <time>2012-03-23T16:28:50Z</time>
      </trkpt>
      <trkpt lat="47.03669" lon="5.41231">
        <ele>189.516968</ele>
        <time>2012-03-23T16:29:06Z</time>
      </trkpt>
      <trkpt lat="47.03737" lon="5.41319">
        <ele>189.516968</ele>
        <time>2012-03-23T16:29:21Z</time>
      </trkpt>
      <trkpt lat="47.03764" lon="5.41332">
        <ele>189.516968</ele>
        <time>2012-03-23T16:29:26Z</time>
      </trkpt>
      <trkpt lat="47.0381" lon="5.4134">
        <ele>189.516968</ele>
        <time>2012-03-23T16:29:35Z</time>
      </trkpt>
      <trkpt lat="47.03843" lon="5.4132">
        <ele>189.516968</ele>
        <time>2012-03-23T16:29:44Z</time>
      </trkpt>
      <trkpt lat="47.03874" lon="5.41326">
        <ele>190.478394</ele>
        <time>2012-03-23T16:29:57Z</time>
      </trkpt>
      <trkpt lat="47.03898" lon="5.41352">
        <ele>189.997681</ele>
        <time>2012-03-23T16:30:05Z</time>
      </trkpt>
      <trkpt lat="47.03911" lon="5.4135">
        <ele>189.997681</ele>
        <time>2012-03-23T16:30:08Z</time>
      </trkpt>
      <trkpt lat="47.03965" lon="5.41391">
        <ele>189.516968</ele>
        <time>2012-03-23T16:30:20Z</time>
      </trkpt>
      <trkpt lat="47.0407" lon="5.41453">
        <ele>189.997681</ele>
        <time>2012-03-23T16:30:41Z</time>
      </trkpt>
      <trkpt lat="47.04103" lon="5.41455">
        <ele>189.997681</ele>
        <time>2012-03-23T16:30:47Z</time>
      </trkpt>
      <trkpt lat="47.04125" lon="5.41453">
        <ele>189.997681</ele>
        <time>2012-03-23T16:30:51Z</time>
      </trkpt>
      <trkpt lat="47.04228" lon="5.4146">
        <ele>190.478394</ele>
        <time>2012-03-23T16:31:09Z</time>
      </trkpt>
      <trkpt lat="47.04245" lon="5.41465">
        <ele>189.997681</ele>
        <time>2012-03-23T16:31:13Z</time>
      </trkpt>
      <trkpt lat="47.04258" lon="5.41462">
        <ele>189.516968</ele>
        <time>2012-03-23T16:31:16Z</time>
      </trkpt>
      <trkpt lat="47.04342" lon="5.41491">
        <ele>189.997681</ele>
        <time>2012-03-23T16:31:32Z</time>
      </trkpt>
      <trkpt lat="47.04433" lon="5.41555">
        <ele>189.997681</ele>
        <time>2012-03-23T16:31:49Z</time>
      </trkpt>
      <trkpt lat="47.04539" lon="5.41627">
        <ele>189.997681</ele>
        <time>2012-03-23T16:32:09Z</time>
      </trkpt>
      <trkpt lat="47.0459" lon="5.4171">
        <ele>189.997681</ele>
        <time>2012-03-23T16:32:22Z</time>
      </trkpt>
      <trkpt lat="47.04634" lon="5.41788">
        <ele>189.516968</ele>
        <time>2012-03-23T16:32:34Z</time>
      </trkpt>
      <trkpt lat="47.04704" lon="5.41862">
        <ele>189.516968</ele>
        <time>2012-03-23T16:32:51Z</time>
      </trkpt>
      <trkpt lat="47.04706" lon="5.41863">
        <ele>189.516968</ele>
        <time>2012-03-23T16:33:05Z</time>
      </trkpt>
      <trkpt lat="47.04707" lon="5.41863">
        <ele>189.516968</ele>
        <time>2012-03-23T16:33:30Z</time>
      </trkpt>
      <trkpt lat="47.04717" lon="5.41851">
        <ele>189.997681</ele>
        <time>2012-03-23T16:33:37Z</time>
      </trkpt>
      <trkpt lat="47.04734" lon="5.41768">
        <ele>189.516968</ele>
        <time>2012-03-23T16:33:55Z</time>
      </trkpt>
      <trkpt lat="47.04752" lon="5.41709">
        <ele>189.036377</ele>
        <time>2012-03-23T16:34:06Z</time>
      </trkpt>
      <trkpt lat="47.04794" lon="5.4159">
        <ele>189.036377</ele>
        <time>2012-03-23T16:34:25Z</time>
      </trkpt>
      <trkpt lat="47.04842" lon="5.41453">
        <ele>189.036377</ele>
        <time>2012-03-23T16:34:46Z</time>
      </trkpt>
      <trkpt lat="47.04849" lon="5.41425">
        <ele>189.036377</ele>
        <time>2012-03-23T16:34:51Z</time>
      </trkpt>
      <trkpt lat="47.04873" lon="5.41395">
        <ele>189.516968</ele>
        <time>2012-03-23T16:34:59Z</time>
      </trkpt>
      <trkpt lat="47.0489" lon="5.41392">
        <ele>189.036377</ele>
        <time>2012-03-23T16:35:03Z</time>
      </trkpt>
      <trkpt lat="47.04979" lon="5.41392">
        <ele>189.036377</ele>
        <time>2012-03-23T16:35:20Z</time>
      </trkpt>
      <trkpt lat="47.05123" lon="5.41392">
        <ele>189.036377</ele>
        <time>2012-03-23T16:35:44Z</time>
      </trkpt>
      <trkpt lat="47.05204" lon="5.4139">
        <ele>189.036377</ele>
        <time>2012-03-23T16:35:58Z</time>
      </trkpt>
      <trkpt lat="47.05223" lon="5.41398">
        <ele>189.036377</ele>
        <time>2012-03-23T16:36:02Z</time>
      </trkpt>
      <trkpt lat="47.05232" lon="5.41405">
        <ele>189.516968</ele>
        <time>2012-03-23T16:36:04Z</time>
      </trkpt>
      <trkpt lat="47.05251" lon="5.41402">
        <ele>189.516968</ele>
        <time>2012-03-23T16:36:08Z</time>
      </trkpt>
      <trkpt lat="47.05261" lon="5.41396">
        <ele>189.036377</ele>
        <time>2012-03-23T16:36:10Z</time>
      </trkpt>
      <trkpt lat="47.053" lon="5.41389">
        <ele>189.036377</ele>
        <time>2012-03-23T16:36:17Z</time>
      </trkpt>
      <trkpt lat="47.05393" lon="5.41391">
        <ele>189.516968</ele>
        <time>2012-03-23T16:36:35Z</time>
      </trkpt>
      <trkpt lat="47.05467" lon="5.4139">
        <ele>189.516968</ele>
        <time>2012-03-23T16:36:51Z</time>
      </trkpt>
      <trkpt lat="47.0553" lon="5.41392">
        <ele>189.516968</ele>
        <time>2012-03-23T16:37:04Z</time>
      </trkpt>
      <trkpt lat="47.05608" lon="5.41392">
        <ele>189.516968</ele>
        <time>2012-03-23T16:37:18Z</time>
      </trkpt>
      <trkpt lat="47.05641" lon="5.41404">
        <ele>189.516968</ele>
        <time>2012-03-23T16:37:24Z</time>
      </trkpt>
      <trkpt lat="47.0567" lon="5.41403">
        <ele>189.997681</ele>
        <time>2012-03-23T16:37:29Z</time>
      </trkpt>
      <trkpt lat="47.05692" lon="5.41392">
        <ele>189.997681</ele>
        <time>2012-03-23T16:37:33Z</time>
      </trkpt>
      <trkpt lat="47.0574" lon="5.41388">
        <ele>189.516968</ele>
        <time>2012-03-23T16:37:41Z</time>
      </trkpt>
      <trkpt lat="47.05777" lon="5.41363">
        <ele>189.997681</ele>
        <time>2012-03-23T16:37:48Z</time>
      </trkpt>
      <trkpt lat="47.05828" lon="5.41279">
        <ele>189.997681</ele>
        <time>2012-03-23T16:38:00Z</time>
      </trkpt>
      <trkpt lat="47.05863" lon="5.41269">
        <ele>190.478394</ele>
        <time>2012-03-23T16:38:06Z</time>
      </trkpt>
      <trkpt lat="47.05932" lon="5.41273">
        <ele>193.362305</ele>
        <time>2012-03-23T16:38:19Z</time>
      </trkpt>
      <trkpt lat="47.05935" lon="5.41294">
        <ele>193.362305</ele>
        <time>2012-03-23T16:38:23Z</time>
      </trkpt>
      <trkpt lat="47.05934" lon="5.41308">
        <ele>192.881714</ele>
        <time>2012-03-23T16:38:25Z</time>
      </trkpt>
      <trkpt lat="47.05941" lon="5.41455">
        <ele>192.401123</ele>
        <time>2012-03-23T16:38:44Z</time>
      </trkpt>
      <trkpt lat="47.05945" lon="5.41658">
        <ele>192.401123</ele>
        <time>2012-03-23T16:39:08Z</time>
      </trkpt>
      <trkpt lat="47.05944" lon="5.41832">
        <ele>191.920288</ele>
        <time>2012-03-23T16:39:27Z</time>
      </trkpt>
      <trkpt lat="47.05946" lon="5.4207">
        <ele>192.401123</ele>
        <time>2012-03-23T16:39:51Z</time>
      </trkpt>
      <trkpt lat="47.05946" lon="5.42297">
        <ele>191.920288</ele>
        <time>2012-03-23T16:40:13Z</time>
      </trkpt>
      <trkpt lat="47.05945" lon="5.42481">
        <ele>191.920288</ele>
        <time>2012-03-23T16:40:31Z</time>
      </trkpt>
      <trkpt lat="47.05941" lon="5.42671">
        <ele>193.843018</ele>
        <time>2012-03-23T16:40:51Z</time>
      </trkpt>
      <trkpt lat="47.05942" lon="5.42679">
        <ele>193.843018</ele>
        <time>2012-03-23T16:40:53Z</time>
      </trkpt>
      <trkpt lat="47.05951" lon="5.42685">
        <ele>194.804321</ele>
        <time>2012-03-23T16:40:57Z</time>
      </trkpt>
      <trkpt lat="47.05965" lon="5.42683">
        <ele>194.32373</ele>
        <time>2012-03-23T16:41:02Z</time>
      </trkpt>
      <trkpt lat="47.05967" lon="5.4273">
        <ele>192.401123</ele>
        <time>2012-03-23T16:41:09Z</time>
      </trkpt>
      <trkpt lat="47.05966" lon="5.42924">
        <ele>191.439575</ele>
        <time>2012-03-23T16:41:30Z</time>
      </trkpt>
      <trkpt lat="47.05962" lon="5.42948">
        <ele>191.439575</ele>
        <time>2012-03-23T16:41:33Z</time>
      </trkpt>
      <trkpt lat="47.05962" lon="5.42982">
        <ele>190.958984</ele>
        <time>2012-03-23T16:41:37Z</time>
      </trkpt>
      <trkpt lat="47.05965" lon="5.42998">
        <ele>191.439575</ele>
        <time>2012-03-23T16:41:39Z</time>
      </trkpt>
      <trkpt lat="47.05969" lon="5.43161">
        <ele>191.439575</ele>
        <time>2012-03-23T16:41:57Z</time>
      </trkpt>
      <trkpt lat="47.05969" lon="5.43471">
        <ele>191.439575</ele>
        <time>2012-03-23T16:42:29Z</time>
      </trkpt>
      <trkpt lat="47.05974" lon="5.43699">
        <ele>192.401123</ele>
        <time>2012-03-23T16:42:53Z</time>
      </trkpt>
      <trkpt lat="47.05974" lon="5.43717">
        <ele>191.920288</ele>
        <time>2012-03-23T16:42:55Z</time>
      </trkpt>
      <trkpt lat="47.05971" lon="5.4377">
        <ele>191.920288</ele>
        <time>2012-03-23T16:43:01Z</time>
      </trkpt>
      <trkpt lat="47.05957" lon="5.4382">
        <ele>191.439575</ele>
        <time>2012-03-23T16:43:07Z</time>
      </trkpt>
      <trkpt lat="47.05878" lon="5.43931">
        <ele>191.439575</ele>
        <time>2012-03-23T16:43:25Z</time>
      </trkpt>
      <trkpt lat="47.05781" lon="5.44057">
        <ele>191.439575</ele>
        <time>2012-03-23T16:43:45Z</time>
      </trkpt>
      <trkpt lat="47.05669" lon="5.44198">
        <ele>191.920288</ele>
        <time>2012-03-23T16:44:07Z</time>
      </trkpt>
      <trkpt lat="47.05654" lon="5.44205">
        <ele>191.439575</ele>
        <time>2012-03-23T16:44:10Z</time>
      </trkpt>
      <trkpt lat="47.05624" lon="5.4425">
        <ele>192.881714</ele>
        <time>2012-03-23T16:44:17Z</time>
      </trkpt>
      <trkpt lat="47.05561" lon="5.44335">
        <ele>193.843018</ele>
        <time>2012-03-23T16:44:32Z</time>
      </trkpt>
      <trkpt lat="47.05546" lon="5.44419">
        <ele>193.843018</ele>
        <time>2012-03-23T16:44:42Z</time>
      </trkpt>
      <trkpt lat="47.05602" lon="5.44592">
        <ele>193.362305</ele>
        <time>2012-03-23T16:45:02Z</time>
      </trkpt>
      <trkpt lat="47.05608" lon="5.4461">
        <ele>193.362305</ele>
        <time>2012-03-23T16:45:04Z</time>
      </trkpt>
      <trkpt lat="47.05648" lon="5.44747">
        <ele>193.362305</ele>
        <time>2012-03-23T16:45:21Z</time>
      </trkpt>
      <trkpt lat="47.05716" lon="5.4496">
        <ele>193.843018</ele>
        <time>2012-03-23T16:45:46Z</time>
      </trkpt>
      <trkpt lat="47.05776" lon="5.45158">
        <ele>193.843018</ele>
        <time>2012-03-23T16:46:09Z</time>
      </trkpt>
      <trkpt lat="47.05819" lon="5.45288">
        <ele>193.843018</ele>
        <time>2012-03-23T16:46:27Z</time>
      </trkpt>
      <trkpt lat="47.05856" lon="5.45414">
        <ele>193.362305</ele>
        <time>2012-03-23T16:46:44Z</time>
      </trkpt>
      <trkpt lat="47.05901" lon="5.45553">
        <ele>193.362305</ele>
        <time>2012-03-23T16:47:03Z</time>
      </trkpt>
      <trkpt lat="47.05944" lon="5.45694">
        <ele>192.881714</ele>
        <time>2012-03-23T16:47:21Z</time>
      </trkpt>
      <trkpt lat="47.05985" lon="5.45811">
        <ele>193.362305</ele>
        <time>2012-03-23T16:47:37Z</time>
      </trkpt>
      <trkpt lat="47.06019" lon="5.45927">
        <ele>192.881714</ele>
        <time>2012-03-23T16:47:51Z</time>
      </trkpt>
      <trkpt lat="47.06058" lon="5.46052">
        <ele>192.401123</ele>
        <time>2012-03-23T16:48:05Z</time>
      </trkpt>
      <trkpt lat="47.06077" lon="5.46082">
        <ele>191.439575</ele>
        <time>2012-03-23T16:48:15Z</time>
      </trkpt>
      <trkpt lat="47.06079" lon="5.46084">
        <ele>191.439575</ele>
        <time>2012-03-23T16:48:31Z</time>
      </trkpt>
      <trkpt lat="47.06087" lon="5.46101">
        <ele>191.920288</ele>
        <time>2012-03-23T16:49:05Z</time>
      </trkpt>
      <trkpt lat="47.06097" lon="5.46114">
        <ele>191.920288</ele>
        <time>2012-03-23T16:49:08Z</time>
      </trkpt>
      <trkpt lat="47.06111" lon="5.46117">
        <ele>192.401123</ele>
        <time>2012-03-23T16:49:11Z</time>
      </trkpt>
      <trkpt lat="47.06178" lon="5.46162">
        <ele>191.920288</ele>
        <time>2012-03-23T16:49:24Z</time>
      </trkpt>
      <trkpt lat="47.06271" lon="5.46222">
        <ele>192.401123</ele>
        <time>2012-03-23T16:49:41Z</time>
      </trkpt>
      <trkpt lat="47.06351" lon="5.46286">
        <ele>192.401123</ele>
        <time>2012-03-23T16:49:56Z</time>
      </trkpt>
      <trkpt lat="47.06457" lon="5.46374">
        <ele>192.401123</ele>
        <time>2012-03-23T16:50:14Z</time>
      </trkpt>
      <trkpt lat="47.06589" lon="5.46481">
        <ele>192.401123</ele>
        <time>2012-03-23T16:50:33Z</time>
      </trkpt>
      <trkpt lat="47.0671" lon="5.46573">
        <ele>191.439575</ele>
        <time>2012-03-23T16:50:51Z</time>
      </trkpt>
      <trkpt lat="47.06809" lon="5.4664">
        <ele>192.881714</ele>
        <time>2012-03-23T16:51:07Z</time>
      </trkpt>
      <trkpt lat="47.069" lon="5.46708">
        <ele>192.401123</ele>
        <time>2012-03-23T16:51:23Z</time>
      </trkpt>
      <trkpt lat="47.07023" lon="5.46807">
        <ele>192.401123</ele>
        <time>2012-03-23T16:51:43Z</time>
      </trkpt>
      <trkpt lat="47.07123" lon="5.46887">
        <ele>191.920288</ele>
        <time>2012-03-23T16:52:00Z</time>
      </trkpt>
      <trkpt lat="47.07176" lon="5.46929">
        <ele>192.401123</ele>
        <time>2012-03-23T16:52:10Z</time>
      </trkpt>
      <trkpt lat="47.07194" lon="5.46953">
        <ele>192.401123</ele>
        <time>2012-03-23T16:52:14Z</time>
      </trkpt>
      <trkpt lat="47.07244" lon="5.46995">
        <ele>191.920288</ele>
        <time>2012-03-23T16:52:24Z</time>
      </trkpt>
      <trkpt lat="47.07256" lon="5.4701">
        <ele>191.439575</ele>
        <time>2012-03-23T16:52:27Z</time>
      </trkpt>
      <trkpt lat="47.07263" lon="5.4702">
        <ele>191.439575</ele>
        <time>2012-03-23T16:52:29Z</time>
      </trkpt>
      <trkpt lat="47.07281" lon="5.47032">
        <ele>191.920288</ele>
        <time>2012-03-23T16:52:33Z</time>
      </trkpt>
      <trkpt lat="47.07293" lon="5.47036">
        <ele>191.920288</ele>
        <time>2012-03-23T16:52:35Z</time>
      </trkpt>
      <trkpt lat="47.07385" lon="5.4711">
        <ele>191.920288</ele>
        <time>2012-03-23T16:52:50Z</time>
      </trkpt>
      <trkpt lat="47.07504" lon="5.47202">
        <ele>191.439575</ele>
        <time>2012-03-23T16:53:11Z</time>
      </trkpt>
      <trkpt lat="47.07597" lon="5.47279">
        <ele>191.920288</ele>
        <time>2012-03-23T16:53:27Z</time>
      </trkpt>
      <trkpt lat="47.07659" lon="5.47374">
        <ele>191.920288</ele>
        <time>2012-03-23T16:53:41Z</time>
      </trkpt>
      <trkpt lat="47.07731" lon="5.47489">
        <ele>191.920288</ele>
        <time>2012-03-23T16:53:57Z</time>
      </trkpt>
      <trkpt lat="47.07823" lon="5.47632">
        <ele>191.920288</ele>
        <time>2012-03-23T16:54:17Z</time>
      </trkpt>
      <trkpt lat="47.07901" lon="5.47747">
        <ele>192.881714</ele>
        <time>2012-03-23T16:54:35Z</time>
      </trkpt>
      <trkpt lat="47.07991" lon="5.47888">
        <ele>193.362305</ele>
        <time>2012-03-23T16:54:57Z</time>
      </trkpt>
      <trkpt lat="47.08073" lon="5.48001">
        <ele>194.32373</ele>
        <time>2012-03-23T16:55:17Z</time>
      </trkpt>
      <trkpt lat="47.0816" lon="5.48091">
        <ele>194.32373</ele>
        <time>2012-03-23T16:55:35Z</time>
      </trkpt>
      <trkpt lat="47.08235" lon="5.48203">
        <ele>193.843018</ele>
        <time>2012-03-23T16:55:53Z</time>
      </trkpt>
      <trkpt lat="47.08255" lon="5.48235">
        <ele>193.843018</ele>
        <time>2012-03-23T16:55:58Z</time>
      </trkpt>
      <trkpt lat="47.08283" lon="5.4828">
        <ele>193.843018</ele>
        <time>2012-03-23T16:56:05Z</time>
      </trkpt>
      <trkpt lat="47.08364" lon="5.48374">
        <ele>193.843018</ele>
        <time>2012-03-23T16:56:23Z</time>
      </trkpt>
      <trkpt lat="47.08441" lon="5.48502">
        <ele>194.32373</ele>
        <time>2012-03-23T16:56:43Z</time>
      </trkpt>
      <trkpt lat="47.08509" lon="5.4861">
        <ele>194.804321</ele>
        <time>2012-03-23T16:57:02Z</time>
      </trkpt>
      <trkpt lat="47.08522" lon="5.48629">
        <ele>195.284912</ele>
        <time>2012-03-23T16:57:06Z</time>
      </trkpt>
      <trkpt lat="47.08563" lon="5.48695">
        <ele>194.804321</ele>
        <time>2012-03-23T16:57:17Z</time>
      </trkpt>
      <trkpt lat="47.0863" lon="5.48843">
        <ele>194.804321</ele>
        <time>2012-03-23T16:57:37Z</time>
      </trkpt>
      <trkpt lat="47.08689" lon="5.48977">
        <ele>194.32373</ele>
        <time>2012-03-23T16:57:55Z</time>
      </trkpt>
      <trkpt lat="47.08732" lon="5.49086">
        <ele>194.32373</ele>
        <time>2012-03-23T16:58:10Z</time>
      </trkpt>
      <trkpt lat="47.08795" lon="5.49159">
        <ele>195.284912</ele>
        <time>2012-03-23T16:58:23Z</time>
      </trkpt>
      <trkpt lat="47.08833" lon="5.49181">
        <ele>195.284912</ele>
        <time>2012-03-23T16:58:30Z</time>
      </trkpt>
      <trkpt lat="47.08851" lon="5.49203">
        <ele>195.765625</ele>
        <time>2012-03-23T16:58:34Z</time>
      </trkpt>
      <trkpt lat="47.08872" lon="5.49244">
        <ele>195.284912</ele>
        <time>2012-03-23T16:58:40Z</time>
      </trkpt>
      <trkpt lat="47.0887" lon="5.49271">
        <ele>196.726929</ele>
        <time>2012-03-23T16:58:45Z</time>
      </trkpt>
      <trkpt lat="47.08865" lon="5.49274">
        <ele>196.246338</ele>
        <time>2012-03-23T16:58:47Z</time>
      </trkpt>
      <trkpt lat="47.08865" lon="5.49295">
        <ele>195.765625</ele>
        <time>2012-03-23T16:58:51Z</time>
      </trkpt>
      <trkpt lat="47.0887" lon="5.4931">
        <ele>195.765625</ele>
        <time>2012-03-23T16:58:53Z</time>
      </trkpt>
      <trkpt lat="47.08892" lon="5.49392">
        <ele>196.726929</ele>
        <time>2012-03-23T16:59:07Z</time>
      </trkpt>
      <trkpt lat="47.08897" lon="5.49412">
        <ele>198.649536</ele>
        <time>2012-03-23T16:59:12Z</time>
      </trkpt>
      <trkpt lat="47.08882" lon="5.49428">
        <ele>198.649536</ele>
        <time>2012-03-23T16:59:20Z</time>
      </trkpt>
      <trkpt lat="47.08868" lon="5.49439">
        <ele>199.130127</ele>
        <time>2012-03-23T16:59:26Z</time>
      </trkpt>
      <trkpt lat="47.08764" lon="5.49507">
        <ele>199.130127</ele>
        <time>2012-03-23T16:59:48Z</time>
      </trkpt>
      <trkpt lat="47.08748" lon="5.49517">
        <ele>198.649536</ele>
        <time>2012-03-23T16:59:51Z</time>
      </trkpt>
      <trkpt lat="47.08709" lon="5.49502">
        <ele>197.688232</ele>
        <time>2012-03-23T16:59:58Z</time>
      </trkpt>
      <trkpt lat="47.08702" lon="5.49445">
        <ele>196.246338</ele>
        <time>2012-03-23T17:00:04Z</time>
      </trkpt>
      <trkpt lat="47.0869" lon="5.49385">
        <ele>195.284912</ele>
        <time>2012-03-23T17:00:10Z</time>
      </trkpt>
      <trkpt lat="47.08644" lon="5.49221">
        <ele>194.804321</ele>
        <time>2012-03-23T17:00:28Z</time>
      </trkpt>
      <trkpt lat="47.08588" lon="5.49128">
        <ele>194.804321</ele>
        <time>2012-03-23T17:00:40Z</time>
      </trkpt>
      <trkpt lat="47.08535" lon="5.49073">
        <ele>194.804321</ele>
        <time>2012-03-23T17:00:50Z</time>
      </trkpt>
      <trkpt lat="47.08457" lon="5.48948">
        <ele>194.32373</ele>
        <time>2012-03-23T17:01:09Z</time>
      </trkpt>
      <trkpt lat="47.08407" lon="5.48868">
        <ele>194.804321</ele>
        <time>2012-03-23T17:01:21Z</time>
      </trkpt>
      <trkpt lat="47.08399" lon="5.48844">
        <ele>195.284912</ele>
        <time>2012-03-23T17:01:24Z</time>
      </trkpt>
      <trkpt lat="47.08371" lon="5.48809">
        <ele>195.284912</ele>
        <time>2012-03-23T17:01:30Z</time>
      </trkpt>
      <trkpt lat="47.08272" lon="5.4865">
        <ele>194.804321</ele>
        <time>2012-03-23T17:01:52Z</time>
      </trkpt>
      <trkpt lat="47.08182" lon="5.48544">
        <ele>194.804321</ele>
        <time>2012-03-23T17:02:09Z</time>
      </trkpt>
      <trkpt lat="47.08085" lon="5.48473">
        <ele>194.804321</ele>
        <time>2012-03-23T17:02:26Z</time>
      </trkpt>
      <trkpt lat="47.08049" lon="5.48492">
        <ele>195.284912</ele>
        <time>2012-03-23T17:02:33Z</time>
      </trkpt>
      <trkpt lat="47.08047" lon="5.485">
        <ele>195.284912</ele>
        <time>2012-03-23T17:02:34Z</time>
      </trkpt>
      <trkpt lat="47.07955" lon="5.48769">
        <ele>195.765625</ele>
        <time>2012-03-23T17:03:06Z</time>
      </trkpt>
      <trkpt lat="47.07904" lon="5.48913">
        <ele>196.246338</ele>
        <time>2012-03-23T17:03:24Z</time>
      </trkpt>
      <trkpt lat="47.0785" lon="5.48955">
        <ele>195.765625</ele>
        <time>2012-03-23T17:03:34Z</time>
      </trkpt>
      <trkpt lat="47.07809" lon="5.48925">
        <ele>195.765625</ele>
        <time>2012-03-23T17:03:42Z</time>
      </trkpt>
      <trkpt lat="47.07807" lon="5.48917">
        <ele>195.765625</ele>
        <time>2012-03-23T17:03:43Z</time>
      </trkpt>
      <trkpt lat="47.07769" lon="5.48874">
        <ele>196.726929</ele>
        <time>2012-03-23T17:03:53Z</time>
      </trkpt>
      <trkpt lat="47.07756" lon="5.48883">
        <ele>196.726929</ele>
        <time>2012-03-23T17:03:56Z</time>
      </trkpt>
      <trkpt lat="47.07749" lon="5.48891">
        <ele>196.246338</ele>
        <time>2012-03-23T17:03:58Z</time>
      </trkpt>
      <trkpt lat="47.07719" lon="5.48888">
        <ele>196.726929</ele>
        <time>2012-03-23T17:04:04Z</time>
      </trkpt>
      <trkpt lat="47.07691" lon="5.48931">
        <ele>196.726929</ele>
        <time>2012-03-23T17:04:12Z</time>
      </trkpt>
      <trkpt lat="47.0769" lon="5.48939">
        <ele>197.20752</ele>
        <time>2012-03-23T17:04:13Z</time>
      </trkpt>
      <trkpt lat="47.07677" lon="5.48981">
        <ele>197.20752</ele>
        <time>2012-03-23T17:04:19Z</time>
      </trkpt>
      <trkpt lat="47.07595" lon="5.49086">
        <ele>197.20752</ele>
        <time>2012-03-23T17:04:38Z</time>
      </trkpt>
      <trkpt lat="47.07546" lon="5.49099">
        <ele>196.726929</ele>
        <time>2012-03-23T17:04:47Z</time>
      </trkpt>
      <trkpt lat="47.07529" lon="5.49075">
        <ele>196.246338</ele>
        <time>2012-03-23T17:04:51Z</time>
      </trkpt>
      <trkpt lat="47.07505" lon="5.49027">
        <ele>195.284912</ele>
        <time>2012-03-23T17:05:01Z</time>
      </trkpt>
      <trkpt lat="47.07504" lon="5.49038">
        <ele>195.284912</ele>
        <time>2012-03-23T17:05:06Z</time>
      </trkpt>
      <trkpt lat="47.07512" lon="5.49047">
        <ele>195.765625</ele>
        <time>2012-03-23T17:05:09Z</time>
      </trkpt>
      <trkpt lat="47.0752" lon="5.49062">
        <ele>195.284912</ele>
        <time>2012-03-23T17:05:22Z</time>
      </trkpt>
      <trkpt lat="47.07519" lon="5.49061">
        <ele>195.765625</ele>
        <time>2012-03-23T17:06:03Z</time>
      </trkpt>
    </trkseg>
  </trk>
</gpx>